<?xml version="1.0" encoding="UTF-8" standalone="no" ?>
<gpx xmlns="http://www.topografix.com/GPX/1/1" xmlns:xsi="http://www.w3.org/2001/XMLSchema-instance" xsi:schemaLocation="http://www.topografix.com/GPX/1/1 http://www.topografix.com/GPX/1/1/gpx.xsd" version="1.1" creator="VisuGPX - https://www.visugpx.com">
  <metadata>
    <name>Échauffement</name>
  </metadata>
  <trk>
    <name><![CDATA[Échauffement_1]]></name>
    <trkseg>
      <trkpt lat="43.64762" lon="1.37616">
        <ele>146</ele>
        <time>2025-04-23T09:15:49Z</time>
      </trkpt>
      <trkpt lat="43.64765" lon="1.37615">
        <ele>146</ele>
        <time>2025-04-23T09:15:50Z</time>
      </trkpt>
      <trkpt lat="43.64765" lon="1.37615">
        <ele>146</ele>
        <time>2025-04-23T09:15:51Z</time>
      </trkpt>
      <trkpt lat="43.64768" lon="1.37613">
        <ele>145</ele>
        <time>2025-04-23T09:15:52Z</time>
      </trkpt>
      <trkpt lat="43.6477" lon="1.37612">
        <ele>145</ele>
        <time>2025-04-23T09:15:53Z</time>
      </trkpt>
      <trkpt lat="43.64772" lon="1.37611">
        <ele>145</ele>
        <time>2025-04-23T09:15:54Z</time>
      </trkpt>
      <trkpt lat="43.64775" lon="1.37609">
        <ele>145</ele>
        <time>2025-04-23T09:15:55Z</time>
      </trkpt>
      <trkpt lat="43.64777" lon="1.37608">
        <ele>145</ele>
        <time>2025-04-23T09:15:56Z</time>
      </trkpt>
      <trkpt lat="43.6478" lon="1.37606">
        <ele>145</ele>
        <time>2025-04-23T09:15:57Z</time>
      </trkpt>
      <trkpt lat="43.64782" lon="1.37605">
        <ele>145</ele>
        <time>2025-04-23T09:15:58Z</time>
      </trkpt>
      <trkpt lat="43.64783" lon="1.37604">
        <ele>145</ele>
        <time>2025-04-23T09:15:59Z</time>
      </trkpt>
      <trkpt lat="43.64786" lon="1.37603">
        <ele>145</ele>
        <time>2025-04-23T09:16:00Z</time>
      </trkpt>
      <trkpt lat="43.64788" lon="1.37602">
        <ele>145</ele>
        <time>2025-04-23T09:16:01Z</time>
      </trkpt>
      <trkpt lat="43.64791" lon="1.37601">
        <ele>145</ele>
        <time>2025-04-23T09:16:02Z</time>
      </trkpt>
      <trkpt lat="43.64793" lon="1.37599">
        <ele>145</ele>
        <time>2025-04-23T09:16:03Z</time>
      </trkpt>
      <trkpt lat="43.64795" lon="1.37599">
        <ele>145</ele>
        <time>2025-04-23T09:16:04Z</time>
      </trkpt>
      <trkpt lat="43.64795" lon="1.37599">
        <ele>145</ele>
        <time>2025-04-23T09:16:05Z</time>
      </trkpt>
      <trkpt lat="43.64799" lon="1.376">
        <ele>145</ele>
        <time>2025-04-23T09:16:06Z</time>
      </trkpt>
      <trkpt lat="43.64801" lon="1.37601">
        <ele>145</ele>
        <time>2025-04-23T09:16:07Z</time>
      </trkpt>
      <trkpt lat="43.64804" lon="1.37602">
        <ele>145</ele>
        <time>2025-04-23T09:16:08Z</time>
      </trkpt>
      <trkpt lat="43.64805" lon="1.37604">
        <ele>145</ele>
        <time>2025-04-23T09:16:09Z</time>
      </trkpt>
      <trkpt lat="43.64807" lon="1.37605">
        <ele>145</ele>
        <time>2025-04-23T09:16:10Z</time>
      </trkpt>
      <trkpt lat="43.6481" lon="1.37607">
        <ele>145</ele>
        <time>2025-04-23T09:16:11Z</time>
      </trkpt>
      <trkpt lat="43.64812" lon="1.37608">
        <ele>145</ele>
        <time>2025-04-23T09:16:12Z</time>
      </trkpt>
      <trkpt lat="43.64814" lon="1.3761">
        <ele>145</ele>
        <time>2025-04-23T09:16:13Z</time>
      </trkpt>
      <trkpt lat="43.64816" lon="1.37611">
        <ele>145</ele>
        <time>2025-04-23T09:16:14Z</time>
      </trkpt>
      <trkpt lat="43.64819" lon="1.37613">
        <ele>145</ele>
        <time>2025-04-23T09:16:15Z</time>
      </trkpt>
      <trkpt lat="43.64821" lon="1.37615">
        <ele>145</ele>
        <time>2025-04-23T09:16:16Z</time>
      </trkpt>
      <trkpt lat="43.64823" lon="1.37617">
        <ele>145</ele>
        <time>2025-04-23T09:16:17Z</time>
      </trkpt>
      <trkpt lat="43.64825" lon="1.37619">
        <ele>145</ele>
        <time>2025-04-23T09:16:18Z</time>
      </trkpt>
      <trkpt lat="43.64827" lon="1.37621">
        <ele>145</ele>
        <time>2025-04-23T09:16:19Z</time>
      </trkpt>
      <trkpt lat="43.6483" lon="1.37623">
        <ele>145</ele>
        <time>2025-04-23T09:16:20Z</time>
      </trkpt>
      <trkpt lat="43.64833" lon="1.37625">
        <ele>145</ele>
        <time>2025-04-23T09:16:21Z</time>
      </trkpt>
      <trkpt lat="43.64835" lon="1.37626">
        <ele>145</ele>
        <time>2025-04-23T09:16:22Z</time>
      </trkpt>
      <trkpt lat="43.64837" lon="1.37628">
        <ele>145</ele>
        <time>2025-04-23T09:16:23Z</time>
      </trkpt>
      <trkpt lat="43.6484" lon="1.3763">
        <ele>145</ele>
        <time>2025-04-23T09:16:24Z</time>
      </trkpt>
      <trkpt lat="43.64842" lon="1.37632">
        <ele>145</ele>
        <time>2025-04-23T09:16:25Z</time>
      </trkpt>
      <trkpt lat="43.64845" lon="1.37634">
        <ele>145</ele>
        <time>2025-04-23T09:16:26Z</time>
      </trkpt>
      <trkpt lat="43.64847" lon="1.37636">
        <ele>145</ele>
        <time>2025-04-23T09:16:27Z</time>
      </trkpt>
      <trkpt lat="43.64849" lon="1.37638">
        <ele>145</ele>
        <time>2025-04-23T09:16:28Z</time>
      </trkpt>
      <trkpt lat="43.64851" lon="1.3764">
        <ele>145</ele>
        <time>2025-04-23T09:16:29Z</time>
      </trkpt>
      <trkpt lat="43.64853" lon="1.37641">
        <ele>145</ele>
        <time>2025-04-23T09:16:30Z</time>
      </trkpt>
      <trkpt lat="43.64855" lon="1.37642">
        <ele>145</ele>
        <time>2025-04-23T09:16:31Z</time>
      </trkpt>
      <trkpt lat="43.64857" lon="1.37644">
        <ele>145</ele>
        <time>2025-04-23T09:16:32Z</time>
      </trkpt>
      <trkpt lat="43.64859" lon="1.37646">
        <ele>145</ele>
        <time>2025-04-23T09:16:33Z</time>
      </trkpt>
      <trkpt lat="43.64862" lon="1.37649">
        <ele>145</ele>
        <time>2025-04-23T09:16:34Z</time>
      </trkpt>
      <trkpt lat="43.64864" lon="1.3765">
        <ele>145</ele>
        <time>2025-04-23T09:16:35Z</time>
      </trkpt>
      <trkpt lat="43.64866" lon="1.37651">
        <ele>145</ele>
        <time>2025-04-23T09:16:36Z</time>
      </trkpt>
      <trkpt lat="43.64869" lon="1.37652">
        <ele>145</ele>
        <time>2025-04-23T09:16:37Z</time>
      </trkpt>
      <trkpt lat="43.64871" lon="1.37654">
        <ele>145</ele>
        <time>2025-04-23T09:16:38Z</time>
      </trkpt>
      <trkpt lat="43.64873" lon="1.37656">
        <ele>145</ele>
        <time>2025-04-23T09:16:39Z</time>
      </trkpt>
      <trkpt lat="43.64875" lon="1.37658">
        <ele>145</ele>
        <time>2025-04-23T09:16:40Z</time>
      </trkpt>
      <trkpt lat="43.64877" lon="1.37661">
        <ele>145</ele>
        <time>2025-04-23T09:16:41Z</time>
      </trkpt>
      <trkpt lat="43.64877" lon="1.37665">
        <ele>145</ele>
        <time>2025-04-23T09:16:42Z</time>
      </trkpt>
      <trkpt lat="43.64877" lon="1.37668">
        <ele>145</ele>
        <time>2025-04-23T09:16:43Z</time>
      </trkpt>
      <trkpt lat="43.64877" lon="1.37672">
        <ele>145</ele>
        <time>2025-04-23T09:16:44Z</time>
      </trkpt>
      <trkpt lat="43.64878" lon="1.37675">
        <ele>145</ele>
        <time>2025-04-23T09:16:45Z</time>
      </trkpt>
      <trkpt lat="43.64878" lon="1.37679">
        <ele>145</ele>
        <time>2025-04-23T09:16:46Z</time>
      </trkpt>
      <trkpt lat="43.64879" lon="1.37682">
        <ele>145</ele>
        <time>2025-04-23T09:16:47Z</time>
      </trkpt>
      <trkpt lat="43.6488" lon="1.37685">
        <ele>145</ele>
        <time>2025-04-23T09:16:48Z</time>
      </trkpt>
      <trkpt lat="43.6488" lon="1.37688">
        <ele>145</ele>
        <time>2025-04-23T09:16:49Z</time>
      </trkpt>
      <trkpt lat="43.64881" lon="1.37692">
        <ele>145</ele>
        <time>2025-04-23T09:16:50Z</time>
      </trkpt>
      <trkpt lat="43.64882" lon="1.37696">
        <ele>145</ele>
        <time>2025-04-23T09:16:51Z</time>
      </trkpt>
      <trkpt lat="43.64883" lon="1.37701">
        <ele>144</ele>
        <time>2025-04-23T09:16:52Z</time>
      </trkpt>
      <trkpt lat="43.64884" lon="1.37704">
        <ele>145</ele>
        <time>2025-04-23T09:16:53Z</time>
      </trkpt>
      <trkpt lat="43.64885" lon="1.37708">
        <ele>145</ele>
        <time>2025-04-23T09:16:54Z</time>
      </trkpt>
      <trkpt lat="43.64886" lon="1.37711">
        <ele>145</ele>
        <time>2025-04-23T09:16:55Z</time>
      </trkpt>
      <trkpt lat="43.64887" lon="1.37714">
        <ele>145</ele>
        <time>2025-04-23T09:16:56Z</time>
      </trkpt>
      <trkpt lat="43.64888" lon="1.37717">
        <ele>145</ele>
        <time>2025-04-23T09:16:57Z</time>
      </trkpt>
      <trkpt lat="43.6489" lon="1.3772">
        <ele>145</ele>
        <time>2025-04-23T09:16:58Z</time>
      </trkpt>
      <trkpt lat="43.6489" lon="1.37723">
        <ele>145</ele>
        <time>2025-04-23T09:16:59Z</time>
      </trkpt>
      <trkpt lat="43.64891" lon="1.37725">
        <ele>145</ele>
        <time>2025-04-23T09:17:00Z</time>
      </trkpt>
      <trkpt lat="43.64892" lon="1.37728">
        <ele>145</ele>
        <time>2025-04-23T09:17:01Z</time>
      </trkpt>
      <trkpt lat="43.64892" lon="1.37731">
        <ele>145</ele>
        <time>2025-04-23T09:17:02Z</time>
      </trkpt>
      <trkpt lat="43.64892" lon="1.37731">
        <ele>145</ele>
        <time>2025-04-23T09:17:03Z</time>
      </trkpt>
      <trkpt lat="43.64894" lon="1.37737">
        <ele>145</ele>
        <time>2025-04-23T09:17:04Z</time>
      </trkpt>
      <trkpt lat="43.64895" lon="1.3774">
        <ele>145</ele>
        <time>2025-04-23T09:17:05Z</time>
      </trkpt>
      <trkpt lat="43.64896" lon="1.37744">
        <ele>145</ele>
        <time>2025-04-23T09:17:06Z</time>
      </trkpt>
      <trkpt lat="43.64896" lon="1.37746">
        <ele>145</ele>
        <time>2025-04-23T09:17:07Z</time>
      </trkpt>
      <trkpt lat="43.64897" lon="1.37749">
        <ele>145</ele>
        <time>2025-04-23T09:17:08Z</time>
      </trkpt>
      <trkpt lat="43.64897" lon="1.37752">
        <ele>145</ele>
        <time>2025-04-23T09:17:09Z</time>
      </trkpt>
      <trkpt lat="43.64898" lon="1.37755">
        <ele>144</ele>
        <time>2025-04-23T09:17:10Z</time>
      </trkpt>
      <trkpt lat="43.64898" lon="1.37758">
        <ele>144</ele>
        <time>2025-04-23T09:17:11Z</time>
      </trkpt>
      <trkpt lat="43.64898" lon="1.37761">
        <ele>144</ele>
        <time>2025-04-23T09:17:12Z</time>
      </trkpt>
      <trkpt lat="43.64899" lon="1.37764">
        <ele>144</ele>
        <time>2025-04-23T09:17:13Z</time>
      </trkpt>
      <trkpt lat="43.64899" lon="1.37767">
        <ele>144</ele>
        <time>2025-04-23T09:17:14Z</time>
      </trkpt>
      <trkpt lat="43.649" lon="1.3777">
        <ele>144</ele>
        <time>2025-04-23T09:17:15Z</time>
      </trkpt>
      <trkpt lat="43.64901" lon="1.37773">
        <ele>144</ele>
        <time>2025-04-23T09:17:16Z</time>
      </trkpt>
      <trkpt lat="43.64901" lon="1.37775">
        <ele>144</ele>
        <time>2025-04-23T09:17:17Z</time>
      </trkpt>
      <trkpt lat="43.64902" lon="1.37779">
        <ele>144</ele>
        <time>2025-04-23T09:17:18Z</time>
      </trkpt>
      <trkpt lat="43.64903" lon="1.37782">
        <ele>144</ele>
        <time>2025-04-23T09:17:19Z</time>
      </trkpt>
      <trkpt lat="43.64904" lon="1.37786">
        <ele>144</ele>
        <time>2025-04-23T09:17:20Z</time>
      </trkpt>
      <trkpt lat="43.64905" lon="1.37789">
        <ele>144</ele>
        <time>2025-04-23T09:17:21Z</time>
      </trkpt>
      <trkpt lat="43.64906" lon="1.37793">
        <ele>144</ele>
        <time>2025-04-23T09:17:22Z</time>
      </trkpt>
      <trkpt lat="43.64907" lon="1.37796">
        <ele>144</ele>
        <time>2025-04-23T09:17:23Z</time>
      </trkpt>
      <trkpt lat="43.64908" lon="1.37799">
        <ele>144</ele>
        <time>2025-04-23T09:17:24Z</time>
      </trkpt>
      <trkpt lat="43.64908" lon="1.37802">
        <ele>144</ele>
        <time>2025-04-23T09:17:25Z</time>
      </trkpt>
      <trkpt lat="43.64909" lon="1.37805">
        <ele>144</ele>
        <time>2025-04-23T09:17:26Z</time>
      </trkpt>
      <trkpt lat="43.6491" lon="1.37808">
        <ele>144</ele>
        <time>2025-04-23T09:17:27Z</time>
      </trkpt>
      <trkpt lat="43.64911" lon="1.37811">
        <ele>144</ele>
        <time>2025-04-23T09:17:28Z</time>
      </trkpt>
      <trkpt lat="43.64911" lon="1.37814">
        <ele>144</ele>
        <time>2025-04-23T09:17:29Z</time>
      </trkpt>
      <trkpt lat="43.64912" lon="1.37818">
        <ele>145</ele>
        <time>2025-04-23T09:17:30Z</time>
      </trkpt>
      <trkpt lat="43.64913" lon="1.37822">
        <ele>145</ele>
        <time>2025-04-23T09:17:31Z</time>
      </trkpt>
      <trkpt lat="43.64914" lon="1.37825">
        <ele>145</ele>
        <time>2025-04-23T09:17:32Z</time>
      </trkpt>
      <trkpt lat="43.64915" lon="1.37828">
        <ele>145</ele>
        <time>2025-04-23T09:17:33Z</time>
      </trkpt>
      <trkpt lat="43.64916" lon="1.37831">
        <ele>145</ele>
        <time>2025-04-23T09:17:34Z</time>
      </trkpt>
      <trkpt lat="43.64917" lon="1.37835">
        <ele>144</ele>
        <time>2025-04-23T09:17:35Z</time>
      </trkpt>
      <trkpt lat="43.64918" lon="1.37838">
        <ele>144</ele>
        <time>2025-04-23T09:17:36Z</time>
      </trkpt>
      <trkpt lat="43.64919" lon="1.37842">
        <ele>144</ele>
        <time>2025-04-23T09:17:37Z</time>
      </trkpt>
      <trkpt lat="43.6492" lon="1.37845">
        <ele>144</ele>
        <time>2025-04-23T09:17:38Z</time>
      </trkpt>
      <trkpt lat="43.64921" lon="1.37849">
        <ele>144</ele>
        <time>2025-04-23T09:17:39Z</time>
      </trkpt>
      <trkpt lat="43.64922" lon="1.37852">
        <ele>144</ele>
        <time>2025-04-23T09:17:40Z</time>
      </trkpt>
      <trkpt lat="43.64922" lon="1.37855">
        <ele>144</ele>
        <time>2025-04-23T09:17:41Z</time>
      </trkpt>
      <trkpt lat="43.64922" lon="1.37858">
        <ele>144</ele>
        <time>2025-04-23T09:17:42Z</time>
      </trkpt>
      <trkpt lat="43.64923" lon="1.37861">
        <ele>144</ele>
        <time>2025-04-23T09:17:43Z</time>
      </trkpt>
      <trkpt lat="43.64924" lon="1.37864">
        <ele>144</ele>
        <time>2025-04-23T09:17:44Z</time>
      </trkpt>
      <trkpt lat="43.64924" lon="1.37868">
        <ele>144</ele>
        <time>2025-04-23T09:17:45Z</time>
      </trkpt>
      <trkpt lat="43.64925" lon="1.37871">
        <ele>144</ele>
        <time>2025-04-23T09:17:46Z</time>
      </trkpt>
      <trkpt lat="43.64925" lon="1.37874">
        <ele>144</ele>
        <time>2025-04-23T09:17:47Z</time>
      </trkpt>
      <trkpt lat="43.64926" lon="1.37877">
        <ele>144</ele>
        <time>2025-04-23T09:17:48Z</time>
      </trkpt>
      <trkpt lat="43.64927" lon="1.37881">
        <ele>144</ele>
        <time>2025-04-23T09:17:49Z</time>
      </trkpt>
      <trkpt lat="43.64928" lon="1.37884">
        <ele>144</ele>
        <time>2025-04-23T09:17:50Z</time>
      </trkpt>
      <trkpt lat="43.64929" lon="1.37888">
        <ele>144</ele>
        <time>2025-04-23T09:17:51Z</time>
      </trkpt>
      <trkpt lat="43.6493" lon="1.37892">
        <ele>144</ele>
        <time>2025-04-23T09:17:52Z</time>
      </trkpt>
      <trkpt lat="43.64931" lon="1.37895">
        <ele>144</ele>
        <time>2025-04-23T09:17:53Z</time>
      </trkpt>
      <trkpt lat="43.64932" lon="1.37898">
        <ele>144</ele>
        <time>2025-04-23T09:17:54Z</time>
      </trkpt>
      <trkpt lat="43.64933" lon="1.37901">
        <ele>144</ele>
        <time>2025-04-23T09:17:55Z</time>
      </trkpt>
      <trkpt lat="43.64934" lon="1.37905">
        <ele>144</ele>
        <time>2025-04-23T09:17:56Z</time>
      </trkpt>
      <trkpt lat="43.64935" lon="1.37907">
        <ele>144</ele>
        <time>2025-04-23T09:17:57Z</time>
      </trkpt>
      <trkpt lat="43.64935" lon="1.3791">
        <ele>144</ele>
        <time>2025-04-23T09:17:58Z</time>
      </trkpt>
      <trkpt lat="43.64936" lon="1.37913">
        <ele>144</ele>
        <time>2025-04-23T09:17:59Z</time>
      </trkpt>
      <trkpt lat="43.64937" lon="1.37916">
        <ele>144</ele>
        <time>2025-04-23T09:18:00Z</time>
      </trkpt>
      <trkpt lat="43.64938" lon="1.3792">
        <ele>144</ele>
        <time>2025-04-23T09:18:01Z</time>
      </trkpt>
      <trkpt lat="43.64938" lon="1.37923">
        <ele>144</ele>
        <time>2025-04-23T09:18:02Z</time>
      </trkpt>
      <trkpt lat="43.64939" lon="1.37926">
        <ele>144</ele>
        <time>2025-04-23T09:18:03Z</time>
      </trkpt>
      <trkpt lat="43.6494" lon="1.37929">
        <ele>144</ele>
        <time>2025-04-23T09:18:04Z</time>
      </trkpt>
      <trkpt lat="43.64941" lon="1.37932">
        <ele>144</ele>
        <time>2025-04-23T09:18:05Z</time>
      </trkpt>
      <trkpt lat="43.64942" lon="1.37936">
        <ele>144</ele>
        <time>2025-04-23T09:18:06Z</time>
      </trkpt>
      <trkpt lat="43.64943" lon="1.37939">
        <ele>144</ele>
        <time>2025-04-23T09:18:07Z</time>
      </trkpt>
      <trkpt lat="43.64944" lon="1.37943">
        <ele>144</ele>
        <time>2025-04-23T09:18:08Z</time>
      </trkpt>
      <trkpt lat="43.64945" lon="1.37946">
        <ele>144</ele>
        <time>2025-04-23T09:18:09Z</time>
      </trkpt>
      <trkpt lat="43.64946" lon="1.37949">
        <ele>144</ele>
        <time>2025-04-23T09:18:10Z</time>
      </trkpt>
      <trkpt lat="43.64947" lon="1.37953">
        <ele>144</ele>
        <time>2025-04-23T09:18:11Z</time>
      </trkpt>
      <trkpt lat="43.64947" lon="1.37953">
        <ele>144</ele>
        <time>2025-04-23T09:18:12Z</time>
      </trkpt>
      <trkpt lat="43.64948" lon="1.37958">
        <ele>144</ele>
        <time>2025-04-23T09:18:13Z</time>
      </trkpt>
      <trkpt lat="43.64948" lon="1.37961">
        <ele>144</ele>
        <time>2025-04-23T09:18:14Z</time>
      </trkpt>
      <trkpt lat="43.64948" lon="1.37964">
        <ele>144</ele>
        <time>2025-04-23T09:18:15Z</time>
      </trkpt>
      <trkpt lat="43.64948" lon="1.37968">
        <ele>144</ele>
        <time>2025-04-23T09:18:16Z</time>
      </trkpt>
      <trkpt lat="43.64948" lon="1.37971">
        <ele>144</ele>
        <time>2025-04-23T09:18:17Z</time>
      </trkpt>
      <trkpt lat="43.64949" lon="1.37975">
        <ele>144</ele>
        <time>2025-04-23T09:18:18Z</time>
      </trkpt>
      <trkpt lat="43.6495" lon="1.37978">
        <ele>144</ele>
        <time>2025-04-23T09:18:19Z</time>
      </trkpt>
      <trkpt lat="43.64951" lon="1.37982">
        <ele>144</ele>
        <time>2025-04-23T09:18:20Z</time>
      </trkpt>
      <trkpt lat="43.64951" lon="1.37986">
        <ele>144</ele>
        <time>2025-04-23T09:18:21Z</time>
      </trkpt>
      <trkpt lat="43.64952" lon="1.37989">
        <ele>144</ele>
        <time>2025-04-23T09:18:22Z</time>
      </trkpt>
      <trkpt lat="43.64954" lon="1.37992">
        <ele>144</ele>
        <time>2025-04-23T09:18:23Z</time>
      </trkpt>
      <trkpt lat="43.64955" lon="1.37995">
        <ele>144</ele>
        <time>2025-04-23T09:18:24Z</time>
      </trkpt>
      <trkpt lat="43.64957" lon="1.37997">
        <ele>144</ele>
        <time>2025-04-23T09:18:25Z</time>
      </trkpt>
      <trkpt lat="43.64958" lon="1.37999">
        <ele>144</ele>
        <time>2025-04-23T09:18:26Z</time>
      </trkpt>
      <trkpt lat="43.64959" lon="1.38002">
        <ele>144</ele>
        <time>2025-04-23T09:18:27Z</time>
      </trkpt>
      <trkpt lat="43.64961" lon="1.38005">
        <ele>144</ele>
        <time>2025-04-23T09:18:28Z</time>
      </trkpt>
      <trkpt lat="43.64962" lon="1.38008">
        <ele>144</ele>
        <time>2025-04-23T09:18:29Z</time>
      </trkpt>
      <trkpt lat="43.64963" lon="1.38011">
        <ele>144</ele>
        <time>2025-04-23T09:18:30Z</time>
      </trkpt>
      <trkpt lat="43.64965" lon="1.38013">
        <ele>144</ele>
        <time>2025-04-23T09:18:31Z</time>
      </trkpt>
      <trkpt lat="43.64966" lon="1.38016">
        <ele>144</ele>
        <time>2025-04-23T09:18:32Z</time>
      </trkpt>
      <trkpt lat="43.64967" lon="1.38019">
        <ele>144</ele>
        <time>2025-04-23T09:18:33Z</time>
      </trkpt>
      <trkpt lat="43.64968" lon="1.38022">
        <ele>144</ele>
        <time>2025-04-23T09:18:34Z</time>
      </trkpt>
      <trkpt lat="43.64968" lon="1.38025">
        <ele>144</ele>
        <time>2025-04-23T09:18:35Z</time>
      </trkpt>
      <trkpt lat="43.64969" lon="1.38028">
        <ele>144</ele>
        <time>2025-04-23T09:18:36Z</time>
      </trkpt>
      <trkpt lat="43.64969" lon="1.38031">
        <ele>144</ele>
        <time>2025-04-23T09:18:37Z</time>
      </trkpt>
      <trkpt lat="43.6497" lon="1.38034">
        <ele>144</ele>
        <time>2025-04-23T09:18:38Z</time>
      </trkpt>
      <trkpt lat="43.6497" lon="1.38037">
        <ele>144</ele>
        <time>2025-04-23T09:18:39Z</time>
      </trkpt>
      <trkpt lat="43.64971" lon="1.3804">
        <ele>144</ele>
        <time>2025-04-23T09:18:40Z</time>
      </trkpt>
      <trkpt lat="43.64972" lon="1.38043">
        <ele>144</ele>
        <time>2025-04-23T09:18:41Z</time>
      </trkpt>
      <trkpt lat="43.64973" lon="1.38045">
        <ele>144</ele>
        <time>2025-04-23T09:18:42Z</time>
      </trkpt>
      <trkpt lat="43.64974" lon="1.38049">
        <ele>144</ele>
        <time>2025-04-23T09:18:43Z</time>
      </trkpt>
      <trkpt lat="43.64975" lon="1.38052">
        <ele>144</ele>
        <time>2025-04-23T09:18:44Z</time>
      </trkpt>
      <trkpt lat="43.64976" lon="1.38054">
        <ele>144</ele>
        <time>2025-04-23T09:18:45Z</time>
      </trkpt>
      <trkpt lat="43.64977" lon="1.38057">
        <ele>144</ele>
        <time>2025-04-23T09:18:46Z</time>
      </trkpt>
      <trkpt lat="43.64978" lon="1.3806">
        <ele>144</ele>
        <time>2025-04-23T09:18:47Z</time>
      </trkpt>
      <trkpt lat="43.64979" lon="1.38063">
        <ele>144</ele>
        <time>2025-04-23T09:18:48Z</time>
      </trkpt>
      <trkpt lat="43.6498" lon="1.38066">
        <ele>144</ele>
        <time>2025-04-23T09:18:49Z</time>
      </trkpt>
      <trkpt lat="43.64981" lon="1.38068">
        <ele>144</ele>
        <time>2025-04-23T09:18:50Z</time>
      </trkpt>
      <trkpt lat="43.64982" lon="1.38071">
        <ele>144</ele>
        <time>2025-04-23T09:18:51Z</time>
      </trkpt>
      <trkpt lat="43.64984" lon="1.38074">
        <ele>144</ele>
        <time>2025-04-23T09:18:52Z</time>
      </trkpt>
      <trkpt lat="43.64985" lon="1.38077">
        <ele>144</ele>
        <time>2025-04-23T09:18:53Z</time>
      </trkpt>
      <trkpt lat="43.64986" lon="1.3808">
        <ele>144</ele>
        <time>2025-04-23T09:18:54Z</time>
      </trkpt>
      <trkpt lat="43.64987" lon="1.38084">
        <ele>145</ele>
        <time>2025-04-23T09:18:55Z</time>
      </trkpt>
      <trkpt lat="43.64988" lon="1.38087">
        <ele>145</ele>
        <time>2025-04-23T09:18:56Z</time>
      </trkpt>
      <trkpt lat="43.64989" lon="1.3809">
        <ele>145</ele>
        <time>2025-04-23T09:18:57Z</time>
      </trkpt>
      <trkpt lat="43.64991" lon="1.38093">
        <ele>145</ele>
        <time>2025-04-23T09:18:58Z</time>
      </trkpt>
      <trkpt lat="43.64992" lon="1.38096">
        <ele>145</ele>
        <time>2025-04-23T09:18:59Z</time>
      </trkpt>
      <trkpt lat="43.64993" lon="1.38099">
        <ele>145</ele>
        <time>2025-04-23T09:19:00Z</time>
      </trkpt>
      <trkpt lat="43.64995" lon="1.38102">
        <ele>144</ele>
        <time>2025-04-23T09:19:01Z</time>
      </trkpt>
      <trkpt lat="43.64996" lon="1.38105">
        <ele>144</ele>
        <time>2025-04-23T09:19:02Z</time>
      </trkpt>
      <trkpt lat="43.64997" lon="1.38108">
        <ele>144</ele>
        <time>2025-04-23T09:19:03Z</time>
      </trkpt>
      <trkpt lat="43.64997" lon="1.38111">
        <ele>144</ele>
        <time>2025-04-23T09:19:04Z</time>
      </trkpt>
      <trkpt lat="43.64998" lon="1.38114">
        <ele>144</ele>
        <time>2025-04-23T09:19:05Z</time>
      </trkpt>
      <trkpt lat="43.64999" lon="1.38117">
        <ele>144</ele>
        <time>2025-04-23T09:19:06Z</time>
      </trkpt>
      <trkpt lat="43.65" lon="1.3812">
        <ele>144</ele>
        <time>2025-04-23T09:19:07Z</time>
      </trkpt>
      <trkpt lat="43.65001" lon="1.38123">
        <ele>145</ele>
        <time>2025-04-23T09:19:08Z</time>
      </trkpt>
      <trkpt lat="43.65002" lon="1.38126">
        <ele>145</ele>
        <time>2025-04-23T09:19:09Z</time>
      </trkpt>
      <trkpt lat="43.65003" lon="1.3813">
        <ele>145</ele>
        <time>2025-04-23T09:19:10Z</time>
      </trkpt>
      <trkpt lat="43.65003" lon="1.38133">
        <ele>145</ele>
        <time>2025-04-23T09:19:11Z</time>
      </trkpt>
      <trkpt lat="43.65004" lon="1.38137">
        <ele>145</ele>
        <time>2025-04-23T09:19:12Z</time>
      </trkpt>
      <trkpt lat="43.65004" lon="1.38141">
        <ele>145</ele>
        <time>2025-04-23T09:19:13Z</time>
      </trkpt>
      <trkpt lat="43.65003" lon="1.38145">
        <ele>145</ele>
        <time>2025-04-23T09:19:14Z</time>
      </trkpt>
      <trkpt lat="43.65002" lon="1.38149">
        <ele>145</ele>
        <time>2025-04-23T09:19:15Z</time>
      </trkpt>
      <trkpt lat="43.65001" lon="1.38152">
        <ele>145</ele>
        <time>2025-04-23T09:19:16Z</time>
      </trkpt>
      <trkpt lat="43.65" lon="1.38156">
        <ele>145</ele>
        <time>2025-04-23T09:19:17Z</time>
      </trkpt>
      <trkpt lat="43.64999" lon="1.38159">
        <ele>145</ele>
        <time>2025-04-23T09:19:18Z</time>
      </trkpt>
      <trkpt lat="43.64999" lon="1.38162">
        <ele>145</ele>
        <time>2025-04-23T09:19:19Z</time>
      </trkpt>
      <trkpt lat="43.64998" lon="1.38165">
        <ele>145</ele>
        <time>2025-04-23T09:19:20Z</time>
      </trkpt>
      <trkpt lat="43.64998" lon="1.38169">
        <ele>145</ele>
        <time>2025-04-23T09:19:21Z</time>
      </trkpt>
      <trkpt lat="43.64997" lon="1.38172">
        <ele>145</ele>
        <time>2025-04-23T09:19:22Z</time>
      </trkpt>
      <trkpt lat="43.64997" lon="1.38175">
        <ele>145</ele>
        <time>2025-04-23T09:19:23Z</time>
      </trkpt>
      <trkpt lat="43.64998" lon="1.38179">
        <ele>145</ele>
        <time>2025-04-23T09:19:24Z</time>
      </trkpt>
      <trkpt lat="43.65" lon="1.38182">
        <ele>145</ele>
        <time>2025-04-23T09:19:25Z</time>
      </trkpt>
      <trkpt lat="43.65001" lon="1.38184">
        <ele>145</ele>
        <time>2025-04-23T09:19:26Z</time>
      </trkpt>
      <trkpt lat="43.65002" lon="1.38187">
        <ele>145</ele>
        <time>2025-04-23T09:19:27Z</time>
      </trkpt>
      <trkpt lat="43.65004" lon="1.3819">
        <ele>145</ele>
        <time>2025-04-23T09:19:28Z</time>
      </trkpt>
      <trkpt lat="43.65006" lon="1.38192">
        <ele>145</ele>
        <time>2025-04-23T09:19:29Z</time>
      </trkpt>
      <trkpt lat="43.65007" lon="1.38195">
        <ele>145</ele>
        <time>2025-04-23T09:19:30Z</time>
      </trkpt>
      <trkpt lat="43.65009" lon="1.38197">
        <ele>144</ele>
        <time>2025-04-23T09:19:31Z</time>
      </trkpt>
      <trkpt lat="43.6501" lon="1.38199">
        <ele>145</ele>
        <time>2025-04-23T09:19:32Z</time>
      </trkpt>
      <trkpt lat="43.65011" lon="1.38201">
        <ele>145</ele>
        <time>2025-04-23T09:19:33Z</time>
      </trkpt>
      <trkpt lat="43.65013" lon="1.38207">
        <ele>145</ele>
        <time>2025-04-23T09:19:34Z</time>
      </trkpt>
      <trkpt lat="43.65013" lon="1.38207">
        <ele>145</ele>
        <time>2025-04-23T09:19:35Z</time>
      </trkpt>
      <trkpt lat="43.65014" lon="1.38211">
        <ele>144</ele>
        <time>2025-04-23T09:19:36Z</time>
      </trkpt>
      <trkpt lat="43.65014" lon="1.38214">
        <ele>144</ele>
        <time>2025-04-23T09:19:37Z</time>
      </trkpt>
      <trkpt lat="43.65015" lon="1.38217">
        <ele>144</ele>
        <time>2025-04-23T09:19:38Z</time>
      </trkpt>
      <trkpt lat="43.65016" lon="1.3822">
        <ele>144</ele>
        <time>2025-04-23T09:19:39Z</time>
      </trkpt>
      <trkpt lat="43.65017" lon="1.38223">
        <ele>144</ele>
        <time>2025-04-23T09:19:40Z</time>
      </trkpt>
      <trkpt lat="43.65018" lon="1.38226">
        <ele>145</ele>
        <time>2025-04-23T09:19:41Z</time>
      </trkpt>
      <trkpt lat="43.65019" lon="1.3823">
        <ele>145</ele>
        <time>2025-04-23T09:19:42Z</time>
      </trkpt>
      <trkpt lat="43.6502" lon="1.38233">
        <ele>145</ele>
        <time>2025-04-23T09:19:43Z</time>
      </trkpt>
      <trkpt lat="43.65021" lon="1.38236">
        <ele>145</ele>
        <time>2025-04-23T09:19:44Z</time>
      </trkpt>
      <trkpt lat="43.65022" lon="1.38239">
        <ele>145</ele>
        <time>2025-04-23T09:19:45Z</time>
      </trkpt>
      <trkpt lat="43.65023" lon="1.38243">
        <ele>145</ele>
        <time>2025-04-23T09:19:46Z</time>
      </trkpt>
      <trkpt lat="43.65024" lon="1.38246">
        <ele>145</ele>
        <time>2025-04-23T09:19:47Z</time>
      </trkpt>
      <trkpt lat="43.65025" lon="1.38249">
        <ele>145</ele>
        <time>2025-04-23T09:19:48Z</time>
      </trkpt>
      <trkpt lat="43.65026" lon="1.38252">
        <ele>145</ele>
        <time>2025-04-23T09:19:49Z</time>
      </trkpt>
      <trkpt lat="43.65027" lon="1.38255">
        <ele>145</ele>
        <time>2025-04-23T09:19:50Z</time>
      </trkpt>
      <trkpt lat="43.65028" lon="1.38258">
        <ele>144</ele>
        <time>2025-04-23T09:19:51Z</time>
      </trkpt>
      <trkpt lat="43.65029" lon="1.38261">
        <ele>145</ele>
        <time>2025-04-23T09:19:52Z</time>
      </trkpt>
      <trkpt lat="43.65029" lon="1.38264">
        <ele>145</ele>
        <time>2025-04-23T09:19:53Z</time>
      </trkpt>
      <trkpt lat="43.6503" lon="1.38267">
        <ele>145</ele>
        <time>2025-04-23T09:19:54Z</time>
      </trkpt>
      <trkpt lat="43.65031" lon="1.3827">
        <ele>145</ele>
        <time>2025-04-23T09:19:55Z</time>
      </trkpt>
      <trkpt lat="43.65032" lon="1.38273">
        <ele>145</ele>
        <time>2025-04-23T09:19:56Z</time>
      </trkpt>
      <trkpt lat="43.65032" lon="1.38276">
        <ele>145</ele>
        <time>2025-04-23T09:19:57Z</time>
      </trkpt>
      <trkpt lat="43.65033" lon="1.38279">
        <ele>145</ele>
        <time>2025-04-23T09:19:58Z</time>
      </trkpt>
      <trkpt lat="43.65034" lon="1.38282">
        <ele>145</ele>
        <time>2025-04-23T09:19:59Z</time>
      </trkpt>
      <trkpt lat="43.65035" lon="1.38286">
        <ele>145</ele>
        <time>2025-04-23T09:20:00Z</time>
      </trkpt>
      <trkpt lat="43.65036" lon="1.38289">
        <ele>145</ele>
        <time>2025-04-23T09:20:01Z</time>
      </trkpt>
      <trkpt lat="43.65037" lon="1.38292">
        <ele>145</ele>
        <time>2025-04-23T09:20:02Z</time>
      </trkpt>
      <trkpt lat="43.65038" lon="1.38295">
        <ele>145</ele>
        <time>2025-04-23T09:20:03Z</time>
      </trkpt>
      <trkpt lat="43.65039" lon="1.38298">
        <ele>145</ele>
        <time>2025-04-23T09:20:04Z</time>
      </trkpt>
      <trkpt lat="43.6504" lon="1.38301">
        <ele>145</ele>
        <time>2025-04-23T09:20:05Z</time>
      </trkpt>
      <trkpt lat="43.65041" lon="1.38304">
        <ele>145</ele>
        <time>2025-04-23T09:20:06Z</time>
      </trkpt>
      <trkpt lat="43.65041" lon="1.38308">
        <ele>145</ele>
        <time>2025-04-23T09:20:07Z</time>
      </trkpt>
      <trkpt lat="43.65042" lon="1.38311">
        <ele>145</ele>
        <time>2025-04-23T09:20:08Z</time>
      </trkpt>
      <trkpt lat="43.65042" lon="1.38313">
        <ele>145</ele>
        <time>2025-04-23T09:20:09Z</time>
      </trkpt>
      <trkpt lat="43.65043" lon="1.38316">
        <ele>145</ele>
        <time>2025-04-23T09:20:10Z</time>
      </trkpt>
      <trkpt lat="43.65044" lon="1.3832">
        <ele>145</ele>
        <time>2025-04-23T09:20:11Z</time>
      </trkpt>
      <trkpt lat="43.65045" lon="1.38323">
        <ele>145</ele>
        <time>2025-04-23T09:20:12Z</time>
      </trkpt>
      <trkpt lat="43.65046" lon="1.38327">
        <ele>145</ele>
        <time>2025-04-23T09:20:13Z</time>
      </trkpt>
      <trkpt lat="43.65047" lon="1.3833">
        <ele>145</ele>
        <time>2025-04-23T09:20:14Z</time>
      </trkpt>
      <trkpt lat="43.65048" lon="1.38333">
        <ele>145</ele>
        <time>2025-04-23T09:20:15Z</time>
      </trkpt>
      <trkpt lat="43.65049" lon="1.38336">
        <ele>145</ele>
        <time>2025-04-23T09:20:16Z</time>
      </trkpt>
      <trkpt lat="43.65051" lon="1.38341">
        <ele>145</ele>
        <time>2025-04-23T09:20:17Z</time>
      </trkpt>
      <trkpt lat="43.65051" lon="1.38343">
        <ele>145</ele>
        <time>2025-04-23T09:20:18Z</time>
      </trkpt>
      <trkpt lat="43.65053" lon="1.38346">
        <ele>145</ele>
        <time>2025-04-23T09:20:19Z</time>
      </trkpt>
      <trkpt lat="43.65054" lon="1.38349">
        <ele>145</ele>
        <time>2025-04-23T09:20:20Z</time>
      </trkpt>
      <trkpt lat="43.65054" lon="1.38352">
        <ele>145</ele>
        <time>2025-04-23T09:20:21Z</time>
      </trkpt>
      <trkpt lat="43.65055" lon="1.38355">
        <ele>145</ele>
        <time>2025-04-23T09:20:22Z</time>
      </trkpt>
      <trkpt lat="43.65056" lon="1.38358">
        <ele>145</ele>
        <time>2025-04-23T09:20:23Z</time>
      </trkpt>
      <trkpt lat="43.65057" lon="1.38361">
        <ele>145</ele>
        <time>2025-04-23T09:20:24Z</time>
      </trkpt>
      <trkpt lat="43.65058" lon="1.38365">
        <ele>144</ele>
        <time>2025-04-23T09:20:25Z</time>
      </trkpt>
      <trkpt lat="43.65059" lon="1.38368">
        <ele>144</ele>
        <time>2025-04-23T09:20:26Z</time>
      </trkpt>
      <trkpt lat="43.65059" lon="1.3837">
        <ele>144</ele>
        <time>2025-04-23T09:20:27Z</time>
      </trkpt>
      <trkpt lat="43.6506" lon="1.38374">
        <ele>144</ele>
        <time>2025-04-23T09:20:28Z</time>
      </trkpt>
      <trkpt lat="43.65061" lon="1.38377">
        <ele>144</ele>
        <time>2025-04-23T09:20:29Z</time>
      </trkpt>
      <trkpt lat="43.65062" lon="1.3838">
        <ele>144</ele>
        <time>2025-04-23T09:20:30Z</time>
      </trkpt>
      <trkpt lat="43.65064" lon="1.38384">
        <ele>145</ele>
        <time>2025-04-23T09:20:31Z</time>
      </trkpt>
      <trkpt lat="43.65065" lon="1.38387">
        <ele>145</ele>
        <time>2025-04-23T09:20:32Z</time>
      </trkpt>
      <trkpt lat="43.65066" lon="1.3839">
        <ele>145</ele>
        <time>2025-04-23T09:20:33Z</time>
      </trkpt>
      <trkpt lat="43.65067" lon="1.38393">
        <ele>145</ele>
        <time>2025-04-23T09:20:34Z</time>
      </trkpt>
      <trkpt lat="43.65069" lon="1.38397">
        <ele>145</ele>
        <time>2025-04-23T09:20:35Z</time>
      </trkpt>
      <trkpt lat="43.6507" lon="1.384">
        <ele>144</ele>
        <time>2025-04-23T09:20:36Z</time>
      </trkpt>
      <trkpt lat="43.65071" lon="1.38403">
        <ele>144</ele>
        <time>2025-04-23T09:20:37Z</time>
      </trkpt>
      <trkpt lat="43.65072" lon="1.38406">
        <ele>144</ele>
        <time>2025-04-23T09:20:38Z</time>
      </trkpt>
      <trkpt lat="43.65072" lon="1.38409">
        <ele>144</ele>
        <time>2025-04-23T09:20:39Z</time>
      </trkpt>
      <trkpt lat="43.65073" lon="1.38413">
        <ele>144</ele>
        <time>2025-04-23T09:20:40Z</time>
      </trkpt>
      <trkpt lat="43.65073" lon="1.38417">
        <ele>145</ele>
        <time>2025-04-23T09:20:41Z</time>
      </trkpt>
      <trkpt lat="43.65074" lon="1.3842">
        <ele>145</ele>
        <time>2025-04-23T09:20:42Z</time>
      </trkpt>
      <trkpt lat="43.65075" lon="1.38423">
        <ele>145</ele>
        <time>2025-04-23T09:20:43Z</time>
      </trkpt>
      <trkpt lat="43.65076" lon="1.38426">
        <ele>145</ele>
        <time>2025-04-23T09:20:44Z</time>
      </trkpt>
      <trkpt lat="43.65077" lon="1.38429">
        <ele>145</ele>
        <time>2025-04-23T09:20:45Z</time>
      </trkpt>
      <trkpt lat="43.65078" lon="1.38432">
        <ele>145</ele>
        <time>2025-04-23T09:20:46Z</time>
      </trkpt>
      <trkpt lat="43.65079" lon="1.38435">
        <ele>145</ele>
        <time>2025-04-23T09:20:47Z</time>
      </trkpt>
      <trkpt lat="43.6508" lon="1.38438">
        <ele>145</ele>
        <time>2025-04-23T09:20:48Z</time>
      </trkpt>
      <trkpt lat="43.65081" lon="1.38441">
        <ele>145</ele>
        <time>2025-04-23T09:20:49Z</time>
      </trkpt>
      <trkpt lat="43.65082" lon="1.38444">
        <ele>144</ele>
        <time>2025-04-23T09:20:50Z</time>
      </trkpt>
      <trkpt lat="43.65083" lon="1.38447">
        <ele>144</ele>
        <time>2025-04-23T09:20:51Z</time>
      </trkpt>
      <trkpt lat="43.65084" lon="1.3845">
        <ele>144</ele>
        <time>2025-04-23T09:20:52Z</time>
      </trkpt>
      <trkpt lat="43.65085" lon="1.38455">
        <ele>144</ele>
        <time>2025-04-23T09:20:53Z</time>
      </trkpt>
      <trkpt lat="43.65086" lon="1.38456">
        <ele>145</ele>
        <time>2025-04-23T09:20:54Z</time>
      </trkpt>
      <trkpt lat="43.65087" lon="1.3846">
        <ele>145</ele>
        <time>2025-04-23T09:20:55Z</time>
      </trkpt>
      <trkpt lat="43.65088" lon="1.38463">
        <ele>145</ele>
        <time>2025-04-23T09:20:56Z</time>
      </trkpt>
      <trkpt lat="43.65089" lon="1.38466">
        <ele>145</ele>
        <time>2025-04-23T09:20:57Z</time>
      </trkpt>
      <trkpt lat="43.6509" lon="1.38469">
        <ele>145</ele>
        <time>2025-04-23T09:20:58Z</time>
      </trkpt>
      <trkpt lat="43.65091" lon="1.38472">
        <ele>144</ele>
        <time>2025-04-23T09:20:59Z</time>
      </trkpt>
      <trkpt lat="43.65092" lon="1.38475">
        <ele>144</ele>
        <time>2025-04-23T09:21:00Z</time>
      </trkpt>
      <trkpt lat="43.65092" lon="1.38478">
        <ele>144</ele>
        <time>2025-04-23T09:21:01Z</time>
      </trkpt>
      <trkpt lat="43.65093" lon="1.38481">
        <ele>144</ele>
        <time>2025-04-23T09:21:02Z</time>
      </trkpt>
      <trkpt lat="43.65094" lon="1.38484">
        <ele>144</ele>
        <time>2025-04-23T09:21:03Z</time>
      </trkpt>
      <trkpt lat="43.65095" lon="1.38487">
        <ele>144</ele>
        <time>2025-04-23T09:21:04Z</time>
      </trkpt>
      <trkpt lat="43.65096" lon="1.3849">
        <ele>144</ele>
        <time>2025-04-23T09:21:05Z</time>
      </trkpt>
      <trkpt lat="43.65098" lon="1.38493">
        <ele>144</ele>
        <time>2025-04-23T09:21:06Z</time>
      </trkpt>
      <trkpt lat="43.65099" lon="1.38496">
        <ele>144</ele>
        <time>2025-04-23T09:21:07Z</time>
      </trkpt>
      <trkpt lat="43.651" lon="1.38499">
        <ele>144</ele>
        <time>2025-04-23T09:21:08Z</time>
      </trkpt>
      <trkpt lat="43.65101" lon="1.38502">
        <ele>144</ele>
        <time>2025-04-23T09:21:09Z</time>
      </trkpt>
      <trkpt lat="43.65102" lon="1.38506">
        <ele>144</ele>
        <time>2025-04-23T09:21:10Z</time>
      </trkpt>
      <trkpt lat="43.65102" lon="1.3851">
        <ele>144</ele>
        <time>2025-04-23T09:21:11Z</time>
      </trkpt>
      <trkpt lat="43.65101" lon="1.38514">
        <ele>144</ele>
        <time>2025-04-23T09:21:12Z</time>
      </trkpt>
      <trkpt lat="43.651" lon="1.38517">
        <ele>144</ele>
        <time>2025-04-23T09:21:13Z</time>
      </trkpt>
      <trkpt lat="43.65098" lon="1.3852">
        <ele>144</ele>
        <time>2025-04-23T09:21:14Z</time>
      </trkpt>
      <trkpt lat="43.65098" lon="1.38524">
        <ele>144</ele>
        <time>2025-04-23T09:21:15Z</time>
      </trkpt>
      <trkpt lat="43.65097" lon="1.38527">
        <ele>144</ele>
        <time>2025-04-23T09:21:16Z</time>
      </trkpt>
      <trkpt lat="43.65096" lon="1.3853">
        <ele>144</ele>
        <time>2025-04-23T09:21:17Z</time>
      </trkpt>
      <trkpt lat="43.65095" lon="1.38533">
        <ele>144</ele>
        <time>2025-04-23T09:21:18Z</time>
      </trkpt>
      <trkpt lat="43.65094" lon="1.38537">
        <ele>144</ele>
        <time>2025-04-23T09:21:19Z</time>
      </trkpt>
      <trkpt lat="43.65093" lon="1.3854">
        <ele>144</ele>
        <time>2025-04-23T09:21:20Z</time>
      </trkpt>
      <trkpt lat="43.65091" lon="1.38543">
        <ele>144</ele>
        <time>2025-04-23T09:21:21Z</time>
      </trkpt>
      <trkpt lat="43.65089" lon="1.38546">
        <ele>144</ele>
        <time>2025-04-23T09:21:22Z</time>
      </trkpt>
      <trkpt lat="43.65087" lon="1.38547">
        <ele>144</ele>
        <time>2025-04-23T09:21:23Z</time>
      </trkpt>
      <trkpt lat="43.65084" lon="1.38549">
        <ele>144</ele>
        <time>2025-04-23T09:21:24Z</time>
      </trkpt>
      <trkpt lat="43.65081" lon="1.3855">
        <ele>144</ele>
        <time>2025-04-23T09:21:25Z</time>
      </trkpt>
      <trkpt lat="43.6508" lon="1.38551">
        <ele>144</ele>
        <time>2025-04-23T09:21:26Z</time>
      </trkpt>
      <trkpt lat="43.65078" lon="1.38552">
        <ele>144</ele>
        <time>2025-04-23T09:21:27Z</time>
      </trkpt>
      <trkpt lat="43.65075" lon="1.38553">
        <ele>144</ele>
        <time>2025-04-23T09:21:28Z</time>
      </trkpt>
      <trkpt lat="43.65073" lon="1.38555">
        <ele>144</ele>
        <time>2025-04-23T09:21:29Z</time>
      </trkpt>
      <trkpt lat="43.65071" lon="1.38556">
        <ele>144</ele>
        <time>2025-04-23T09:21:30Z</time>
      </trkpt>
      <trkpt lat="43.65069" lon="1.38558">
        <ele>144</ele>
        <time>2025-04-23T09:21:31Z</time>
      </trkpt>
      <trkpt lat="43.65067" lon="1.38559">
        <ele>144</ele>
        <time>2025-04-23T09:21:32Z</time>
      </trkpt>
      <trkpt lat="43.65065" lon="1.38561">
        <ele>144</ele>
        <time>2025-04-23T09:21:33Z</time>
      </trkpt>
      <trkpt lat="43.65063" lon="1.38562">
        <ele>144</ele>
        <time>2025-04-23T09:21:34Z</time>
      </trkpt>
      <trkpt lat="43.65061" lon="1.38563">
        <ele>144</ele>
        <time>2025-04-23T09:21:35Z</time>
      </trkpt>
      <trkpt lat="43.65058" lon="1.38564">
        <ele>144</ele>
        <time>2025-04-23T09:21:36Z</time>
      </trkpt>
      <trkpt lat="43.65056" lon="1.38566">
        <ele>144</ele>
        <time>2025-04-23T09:21:37Z</time>
      </trkpt>
      <trkpt lat="43.65052" lon="1.38568">
        <ele>144</ele>
        <time>2025-04-23T09:21:38Z</time>
      </trkpt>
      <trkpt lat="43.65051" lon="1.38569">
        <ele>144</ele>
        <time>2025-04-23T09:21:39Z</time>
      </trkpt>
      <trkpt lat="43.65048" lon="1.3857">
        <ele>144</ele>
        <time>2025-04-23T09:21:40Z</time>
      </trkpt>
      <trkpt lat="43.65046" lon="1.38572">
        <ele>144</ele>
        <time>2025-04-23T09:21:41Z</time>
      </trkpt>
      <trkpt lat="43.65043" lon="1.38573">
        <ele>144</ele>
        <time>2025-04-23T09:21:42Z</time>
      </trkpt>
      <trkpt lat="43.65041" lon="1.38574">
        <ele>144</ele>
        <time>2025-04-23T09:21:43Z</time>
      </trkpt>
      <trkpt lat="43.65039" lon="1.38576">
        <ele>144</ele>
        <time>2025-04-23T09:21:44Z</time>
      </trkpt>
      <trkpt lat="43.65036" lon="1.38577">
        <ele>144</ele>
        <time>2025-04-23T09:21:45Z</time>
      </trkpt>
      <trkpt lat="43.65034" lon="1.38579">
        <ele>144</ele>
        <time>2025-04-23T09:21:46Z</time>
      </trkpt>
      <trkpt lat="43.65032" lon="1.3858">
        <ele>144</ele>
        <time>2025-04-23T09:21:47Z</time>
      </trkpt>
      <trkpt lat="43.6503" lon="1.38581">
        <ele>144</ele>
        <time>2025-04-23T09:21:48Z</time>
      </trkpt>
      <trkpt lat="43.65028" lon="1.38583">
        <ele>144</ele>
        <time>2025-04-23T09:21:49Z</time>
      </trkpt>
      <trkpt lat="43.65025" lon="1.38584">
        <ele>144</ele>
        <time>2025-04-23T09:21:50Z</time>
      </trkpt>
      <trkpt lat="43.65022" lon="1.38587">
        <ele>144</ele>
        <time>2025-04-23T09:21:51Z</time>
      </trkpt>
      <trkpt lat="43.6502" lon="1.38588">
        <ele>144</ele>
        <time>2025-04-23T09:21:52Z</time>
      </trkpt>
      <trkpt lat="43.65018" lon="1.38589">
        <ele>144</ele>
        <time>2025-04-23T09:21:53Z</time>
      </trkpt>
      <trkpt lat="43.65016" lon="1.38591">
        <ele>144</ele>
        <time>2025-04-23T09:21:54Z</time>
      </trkpt>
      <trkpt lat="43.65013" lon="1.38592">
        <ele>144</ele>
        <time>2025-04-23T09:21:55Z</time>
      </trkpt>
      <trkpt lat="43.65011" lon="1.38594">
        <ele>144</ele>
        <time>2025-04-23T09:21:56Z</time>
      </trkpt>
      <trkpt lat="43.65009" lon="1.38596">
        <ele>144</ele>
        <time>2025-04-23T09:21:57Z</time>
      </trkpt>
      <trkpt lat="43.65006" lon="1.38598">
        <ele>144</ele>
        <time>2025-04-23T09:21:58Z</time>
      </trkpt>
      <trkpt lat="43.65004" lon="1.38599">
        <ele>144</ele>
        <time>2025-04-23T09:21:59Z</time>
      </trkpt>
      <trkpt lat="43.65002" lon="1.38601">
        <ele>144</ele>
        <time>2025-04-23T09:22:00Z</time>
      </trkpt>
      <trkpt lat="43.65" lon="1.38602">
        <ele>144</ele>
        <time>2025-04-23T09:22:01Z</time>
      </trkpt>
      <trkpt lat="43.64998" lon="1.38603">
        <ele>144</ele>
        <time>2025-04-23T09:22:02Z</time>
      </trkpt>
      <trkpt lat="43.64996" lon="1.38603">
        <ele>144</ele>
        <time>2025-04-23T09:22:03Z</time>
      </trkpt>
      <trkpt lat="43.64993" lon="1.38605">
        <ele>144</ele>
        <time>2025-04-23T09:22:04Z</time>
      </trkpt>
      <trkpt lat="43.64991" lon="1.38606">
        <ele>144</ele>
        <time>2025-04-23T09:22:05Z</time>
      </trkpt>
      <trkpt lat="43.64989" lon="1.38607">
        <ele>144</ele>
        <time>2025-04-23T09:22:06Z</time>
      </trkpt>
      <trkpt lat="43.64987" lon="1.38608">
        <ele>144</ele>
        <time>2025-04-23T09:22:07Z</time>
      </trkpt>
      <trkpt lat="43.64985" lon="1.38609">
        <ele>144</ele>
        <time>2025-04-23T09:22:08Z</time>
      </trkpt>
      <trkpt lat="43.64983" lon="1.3861">
        <ele>144</ele>
        <time>2025-04-23T09:22:09Z</time>
      </trkpt>
      <trkpt lat="43.6498" lon="1.38612">
        <ele>144</ele>
        <time>2025-04-23T09:22:10Z</time>
      </trkpt>
      <trkpt lat="43.64978" lon="1.38613">
        <ele>144</ele>
        <time>2025-04-23T09:22:11Z</time>
      </trkpt>
      <trkpt lat="43.64976" lon="1.38614">
        <ele>144</ele>
        <time>2025-04-23T09:22:12Z</time>
      </trkpt>
      <trkpt lat="43.64974" lon="1.38615">
        <ele>144</ele>
        <time>2025-04-23T09:22:13Z</time>
      </trkpt>
      <trkpt lat="43.64972" lon="1.38616">
        <ele>144</ele>
        <time>2025-04-23T09:22:14Z</time>
      </trkpt>
      <trkpt lat="43.6497" lon="1.38618">
        <ele>144</ele>
        <time>2025-04-23T09:22:15Z</time>
      </trkpt>
      <trkpt lat="43.64968" lon="1.38619">
        <ele>144</ele>
        <time>2025-04-23T09:22:16Z</time>
      </trkpt>
      <trkpt lat="43.64966" lon="1.3862">
        <ele>144</ele>
        <time>2025-04-23T09:22:17Z</time>
      </trkpt>
      <trkpt lat="43.64963" lon="1.38621">
        <ele>144</ele>
        <time>2025-04-23T09:22:18Z</time>
      </trkpt>
      <trkpt lat="43.64961" lon="1.38623">
        <ele>144</ele>
        <time>2025-04-23T09:22:19Z</time>
      </trkpt>
      <trkpt lat="43.64959" lon="1.38624">
        <ele>144</ele>
        <time>2025-04-23T09:22:20Z</time>
      </trkpt>
      <trkpt lat="43.64957" lon="1.38625">
        <ele>144</ele>
        <time>2025-04-23T09:22:21Z</time>
      </trkpt>
      <trkpt lat="43.64955" lon="1.38626">
        <ele>144</ele>
        <time>2025-04-23T09:22:22Z</time>
      </trkpt>
      <trkpt lat="43.64952" lon="1.38627">
        <ele>144</ele>
        <time>2025-04-23T09:22:23Z</time>
      </trkpt>
      <trkpt lat="43.6495" lon="1.38628">
        <ele>144</ele>
        <time>2025-04-23T09:22:24Z</time>
      </trkpt>
      <trkpt lat="43.64948" lon="1.3863">
        <ele>144</ele>
        <time>2025-04-23T09:22:25Z</time>
      </trkpt>
      <trkpt lat="43.64946" lon="1.38632">
        <ele>144</ele>
        <time>2025-04-23T09:22:26Z</time>
      </trkpt>
      <trkpt lat="43.64944" lon="1.38633">
        <ele>144</ele>
        <time>2025-04-23T09:22:27Z</time>
      </trkpt>
      <trkpt lat="43.64942" lon="1.38635">
        <ele>144</ele>
        <time>2025-04-23T09:22:28Z</time>
      </trkpt>
      <trkpt lat="43.64939" lon="1.38636">
        <ele>144</ele>
        <time>2025-04-23T09:22:29Z</time>
      </trkpt>
      <trkpt lat="43.64937" lon="1.38637">
        <ele>144</ele>
        <time>2025-04-23T09:22:30Z</time>
      </trkpt>
      <trkpt lat="43.64935" lon="1.38639">
        <ele>144</ele>
        <time>2025-04-23T09:22:31Z</time>
      </trkpt>
      <trkpt lat="43.64932" lon="1.3864">
        <ele>144</ele>
        <time>2025-04-23T09:22:32Z</time>
      </trkpt>
      <trkpt lat="43.6493" lon="1.38641">
        <ele>144</ele>
        <time>2025-04-23T09:22:33Z</time>
      </trkpt>
      <trkpt lat="43.64928" lon="1.38643">
        <ele>144</ele>
        <time>2025-04-23T09:22:34Z</time>
      </trkpt>
      <trkpt lat="43.64925" lon="1.38644">
        <ele>144</ele>
        <time>2025-04-23T09:22:35Z</time>
      </trkpt>
      <trkpt lat="43.64923" lon="1.38645">
        <ele>144</ele>
        <time>2025-04-23T09:22:36Z</time>
      </trkpt>
      <trkpt lat="43.64921" lon="1.38646">
        <ele>144</ele>
        <time>2025-04-23T09:22:37Z</time>
      </trkpt>
      <trkpt lat="43.64918" lon="1.38648">
        <ele>144</ele>
        <time>2025-04-23T09:22:38Z</time>
      </trkpt>
      <trkpt lat="43.64916" lon="1.38649">
        <ele>144</ele>
        <time>2025-04-23T09:22:39Z</time>
      </trkpt>
      <trkpt lat="43.64914" lon="1.3865">
        <ele>144</ele>
        <time>2025-04-23T09:22:40Z</time>
      </trkpt>
      <trkpt lat="43.64912" lon="1.38652">
        <ele>144</ele>
        <time>2025-04-23T09:22:41Z</time>
      </trkpt>
      <trkpt lat="43.64909" lon="1.38653">
        <ele>144</ele>
        <time>2025-04-23T09:22:42Z</time>
      </trkpt>
      <trkpt lat="43.64907" lon="1.38654">
        <ele>144</ele>
        <time>2025-04-23T09:22:43Z</time>
      </trkpt>
      <trkpt lat="43.64903" lon="1.38656">
        <ele>144</ele>
        <time>2025-04-23T09:22:44Z</time>
      </trkpt>
      <trkpt lat="43.64902" lon="1.38657">
        <ele>144</ele>
        <time>2025-04-23T09:22:45Z</time>
      </trkpt>
      <trkpt lat="43.649" lon="1.38658">
        <ele>144</ele>
        <time>2025-04-23T09:22:46Z</time>
      </trkpt>
      <trkpt lat="43.64898" lon="1.3866">
        <ele>144</ele>
        <time>2025-04-23T09:22:47Z</time>
      </trkpt>
      <trkpt lat="43.64895" lon="1.38661">
        <ele>144</ele>
        <time>2025-04-23T09:22:48Z</time>
      </trkpt>
      <trkpt lat="43.64893" lon="1.38662">
        <ele>144</ele>
        <time>2025-04-23T09:22:49Z</time>
      </trkpt>
      <trkpt lat="43.64891" lon="1.38664">
        <ele>144</ele>
        <time>2025-04-23T09:22:50Z</time>
      </trkpt>
      <trkpt lat="43.64888" lon="1.38665">
        <ele>144</ele>
        <time>2025-04-23T09:22:51Z</time>
      </trkpt>
      <trkpt lat="43.64886" lon="1.38666">
        <ele>144</ele>
        <time>2025-04-23T09:22:52Z</time>
      </trkpt>
      <trkpt lat="43.64884" lon="1.38667">
        <ele>144</ele>
        <time>2025-04-23T09:22:53Z</time>
      </trkpt>
      <trkpt lat="43.64882" lon="1.38669">
        <ele>144</ele>
        <time>2025-04-23T09:22:54Z</time>
      </trkpt>
      <trkpt lat="43.64879" lon="1.3867">
        <ele>144</ele>
        <time>2025-04-23T09:22:55Z</time>
      </trkpt>
      <trkpt lat="43.64877" lon="1.38671">
        <ele>144</ele>
        <time>2025-04-23T09:22:56Z</time>
      </trkpt>
      <trkpt lat="43.64875" lon="1.38673">
        <ele>144</ele>
        <time>2025-04-23T09:22:57Z</time>
      </trkpt>
      <trkpt lat="43.64872" lon="1.38674">
        <ele>144</ele>
        <time>2025-04-23T09:22:58Z</time>
      </trkpt>
      <trkpt lat="43.6487" lon="1.38675">
        <ele>144</ele>
        <time>2025-04-23T09:22:59Z</time>
      </trkpt>
      <trkpt lat="43.64868" lon="1.38677">
        <ele>144</ele>
        <time>2025-04-23T09:23:00Z</time>
      </trkpt>
      <trkpt lat="43.64866" lon="1.38678">
        <ele>145</ele>
        <time>2025-04-23T09:23:01Z</time>
      </trkpt>
      <trkpt lat="43.64864" lon="1.3868">
        <ele>145</ele>
        <time>2025-04-23T09:23:02Z</time>
      </trkpt>
      <trkpt lat="43.64862" lon="1.38681">
        <ele>145</ele>
        <time>2025-04-23T09:23:03Z</time>
      </trkpt>
      <trkpt lat="43.6486" lon="1.38683">
        <ele>145</ele>
        <time>2025-04-23T09:23:04Z</time>
      </trkpt>
      <trkpt lat="43.64858" lon="1.38685">
        <ele>144</ele>
        <time>2025-04-23T09:23:05Z</time>
      </trkpt>
      <trkpt lat="43.64855" lon="1.38686">
        <ele>144</ele>
        <time>2025-04-23T09:23:06Z</time>
      </trkpt>
      <trkpt lat="43.64853" lon="1.38688">
        <ele>145</ele>
        <time>2025-04-23T09:23:07Z</time>
      </trkpt>
      <trkpt lat="43.64851" lon="1.3869">
        <ele>145</ele>
        <time>2025-04-23T09:23:08Z</time>
      </trkpt>
      <trkpt lat="43.64848" lon="1.38692">
        <ele>145</ele>
        <time>2025-04-23T09:23:09Z</time>
      </trkpt>
      <trkpt lat="43.64846" lon="1.38694">
        <ele>144</ele>
        <time>2025-04-23T09:23:10Z</time>
      </trkpt>
      <trkpt lat="43.64843" lon="1.38696">
        <ele>144</ele>
        <time>2025-04-23T09:23:11Z</time>
      </trkpt>
      <trkpt lat="43.64841" lon="1.38697">
        <ele>144</ele>
        <time>2025-04-23T09:23:12Z</time>
      </trkpt>
      <trkpt lat="43.64839" lon="1.38698">
        <ele>144</ele>
        <time>2025-04-23T09:23:13Z</time>
      </trkpt>
      <trkpt lat="43.64837" lon="1.387">
        <ele>144</ele>
        <time>2025-04-23T09:23:14Z</time>
      </trkpt>
      <trkpt lat="43.64835" lon="1.38701">
        <ele>144</ele>
        <time>2025-04-23T09:23:15Z</time>
      </trkpt>
      <trkpt lat="43.64833" lon="1.38703">
        <ele>144</ele>
        <time>2025-04-23T09:23:16Z</time>
      </trkpt>
      <trkpt lat="43.64831" lon="1.38705">
        <ele>144</ele>
        <time>2025-04-23T09:23:17Z</time>
      </trkpt>
      <trkpt lat="43.64829" lon="1.38706">
        <ele>144</ele>
        <time>2025-04-23T09:23:18Z</time>
      </trkpt>
      <trkpt lat="43.64827" lon="1.38708">
        <ele>144</ele>
        <time>2025-04-23T09:23:19Z</time>
      </trkpt>
      <trkpt lat="43.64824" lon="1.38709">
        <ele>144</ele>
        <time>2025-04-23T09:23:20Z</time>
      </trkpt>
      <trkpt lat="43.64822" lon="1.38711">
        <ele>144</ele>
        <time>2025-04-23T09:23:21Z</time>
      </trkpt>
      <trkpt lat="43.6482" lon="1.38713">
        <ele>144</ele>
        <time>2025-04-23T09:23:22Z</time>
      </trkpt>
      <trkpt lat="43.64818" lon="1.38715">
        <ele>144</ele>
        <time>2025-04-23T09:23:23Z</time>
      </trkpt>
      <trkpt lat="43.64816" lon="1.38717">
        <ele>144</ele>
        <time>2025-04-23T09:23:24Z</time>
      </trkpt>
      <trkpt lat="43.64814" lon="1.38719">
        <ele>144</ele>
        <time>2025-04-23T09:23:25Z</time>
      </trkpt>
      <trkpt lat="43.64811" lon="1.3872">
        <ele>144</ele>
        <time>2025-04-23T09:23:26Z</time>
      </trkpt>
      <trkpt lat="43.64809" lon="1.38722">
        <ele>144</ele>
        <time>2025-04-23T09:23:27Z</time>
      </trkpt>
      <trkpt lat="43.64807" lon="1.38724">
        <ele>144</ele>
        <time>2025-04-23T09:23:28Z</time>
      </trkpt>
      <trkpt lat="43.64804" lon="1.38725">
        <ele>144</ele>
        <time>2025-04-23T09:23:29Z</time>
      </trkpt>
      <trkpt lat="43.64802" lon="1.38727">
        <ele>144</ele>
        <time>2025-04-23T09:23:30Z</time>
      </trkpt>
      <trkpt lat="43.648" lon="1.38728">
        <ele>144</ele>
        <time>2025-04-23T09:23:31Z</time>
      </trkpt>
      <trkpt lat="43.64798" lon="1.3873">
        <ele>144</ele>
        <time>2025-04-23T09:23:32Z</time>
      </trkpt>
      <trkpt lat="43.64796" lon="1.38731">
        <ele>144</ele>
        <time>2025-04-23T09:23:33Z</time>
      </trkpt>
      <trkpt lat="43.64794" lon="1.38733">
        <ele>144</ele>
        <time>2025-04-23T09:23:34Z</time>
      </trkpt>
      <trkpt lat="43.64792" lon="1.38736">
        <ele>144</ele>
        <time>2025-04-23T09:23:35Z</time>
      </trkpt>
      <trkpt lat="43.64789" lon="1.38738">
        <ele>144</ele>
        <time>2025-04-23T09:23:36Z</time>
      </trkpt>
      <trkpt lat="43.64787" lon="1.3874">
        <ele>144</ele>
        <time>2025-04-23T09:23:37Z</time>
      </trkpt>
      <trkpt lat="43.64785" lon="1.38741">
        <ele>144</ele>
        <time>2025-04-23T09:23:38Z</time>
      </trkpt>
      <trkpt lat="43.64783" lon="1.38742">
        <ele>144</ele>
        <time>2025-04-23T09:23:39Z</time>
      </trkpt>
      <trkpt lat="43.64781" lon="1.38744">
        <ele>144</ele>
        <time>2025-04-23T09:23:40Z</time>
      </trkpt>
      <trkpt lat="43.64778" lon="1.38746">
        <ele>144</ele>
        <time>2025-04-23T09:23:41Z</time>
      </trkpt>
      <trkpt lat="43.64776" lon="1.38748">
        <ele>144</ele>
        <time>2025-04-23T09:23:42Z</time>
      </trkpt>
      <trkpt lat="43.64774" lon="1.38749">
        <ele>144</ele>
        <time>2025-04-23T09:23:43Z</time>
      </trkpt>
      <trkpt lat="43.64772" lon="1.38751">
        <ele>144</ele>
        <time>2025-04-23T09:23:44Z</time>
      </trkpt>
      <trkpt lat="43.64769" lon="1.38752">
        <ele>144</ele>
        <time>2025-04-23T09:23:45Z</time>
      </trkpt>
      <trkpt lat="43.64767" lon="1.38754">
        <ele>144</ele>
        <time>2025-04-23T09:23:46Z</time>
      </trkpt>
      <trkpt lat="43.64765" lon="1.38756">
        <ele>144</ele>
        <time>2025-04-23T09:23:47Z</time>
      </trkpt>
      <trkpt lat="43.64763" lon="1.38758">
        <ele>144</ele>
        <time>2025-04-23T09:23:48Z</time>
      </trkpt>
      <trkpt lat="43.64761" lon="1.38759">
        <ele>144</ele>
        <time>2025-04-23T09:23:49Z</time>
      </trkpt>
      <trkpt lat="43.64758" lon="1.38761">
        <ele>144</ele>
        <time>2025-04-23T09:23:50Z</time>
      </trkpt>
      <trkpt lat="43.64755" lon="1.38762">
        <ele>144</ele>
        <time>2025-04-23T09:23:51Z</time>
      </trkpt>
      <trkpt lat="43.64753" lon="1.38763">
        <ele>144</ele>
        <time>2025-04-23T09:23:52Z</time>
      </trkpt>
      <trkpt lat="43.64751" lon="1.38765">
        <ele>144</ele>
        <time>2025-04-23T09:23:53Z</time>
      </trkpt>
      <trkpt lat="43.64749" lon="1.38768">
        <ele>144</ele>
        <time>2025-04-23T09:23:54Z</time>
      </trkpt>
      <trkpt lat="43.64747" lon="1.3877">
        <ele>144</ele>
        <time>2025-04-23T09:23:55Z</time>
      </trkpt>
      <trkpt lat="43.64745" lon="1.38772">
        <ele>144</ele>
        <time>2025-04-23T09:23:56Z</time>
      </trkpt>
      <trkpt lat="43.64743" lon="1.38774">
        <ele>144</ele>
        <time>2025-04-23T09:23:57Z</time>
      </trkpt>
      <trkpt lat="43.64741" lon="1.38775">
        <ele>144</ele>
        <time>2025-04-23T09:23:58Z</time>
      </trkpt>
      <trkpt lat="43.64739" lon="1.38777">
        <ele>144</ele>
        <time>2025-04-23T09:23:59Z</time>
      </trkpt>
      <trkpt lat="43.64737" lon="1.38779">
        <ele>144</ele>
        <time>2025-04-23T09:24:00Z</time>
      </trkpt>
      <trkpt lat="43.64734" lon="1.3878">
        <ele>144</ele>
        <time>2025-04-23T09:24:01Z</time>
      </trkpt>
      <trkpt lat="43.64732" lon="1.38781">
        <ele>144</ele>
        <time>2025-04-23T09:24:02Z</time>
      </trkpt>
      <trkpt lat="43.6473" lon="1.38783">
        <ele>144</ele>
        <time>2025-04-23T09:24:03Z</time>
      </trkpt>
      <trkpt lat="43.64727" lon="1.38784">
        <ele>144</ele>
        <time>2025-04-23T09:24:04Z</time>
      </trkpt>
      <trkpt lat="43.64725" lon="1.38785">
        <ele>144</ele>
        <time>2025-04-23T09:24:05Z</time>
      </trkpt>
      <trkpt lat="43.64723" lon="1.38786">
        <ele>144</ele>
        <time>2025-04-23T09:24:06Z</time>
      </trkpt>
      <trkpt lat="43.64721" lon="1.38788">
        <ele>144</ele>
        <time>2025-04-23T09:24:07Z</time>
      </trkpt>
      <trkpt lat="43.64719" lon="1.3879">
        <ele>145</ele>
        <time>2025-04-23T09:24:08Z</time>
      </trkpt>
      <trkpt lat="43.64717" lon="1.38791">
        <ele>145</ele>
        <time>2025-04-23T09:24:09Z</time>
      </trkpt>
      <trkpt lat="43.64714" lon="1.38793">
        <ele>145</ele>
        <time>2025-04-23T09:24:10Z</time>
      </trkpt>
      <trkpt lat="43.64712" lon="1.38794">
        <ele>145</ele>
        <time>2025-04-23T09:24:11Z</time>
      </trkpt>
      <trkpt lat="43.6471" lon="1.38795">
        <ele>145</ele>
        <time>2025-04-23T09:24:12Z</time>
      </trkpt>
      <trkpt lat="43.64707" lon="1.38797">
        <ele>145</ele>
        <time>2025-04-23T09:24:13Z</time>
      </trkpt>
      <trkpt lat="43.64705" lon="1.38798">
        <ele>144</ele>
        <time>2025-04-23T09:24:14Z</time>
      </trkpt>
      <trkpt lat="43.64702" lon="1.38799">
        <ele>144</ele>
        <time>2025-04-23T09:24:15Z</time>
      </trkpt>
      <trkpt lat="43.647" lon="1.38801">
        <ele>144</ele>
        <time>2025-04-23T09:24:16Z</time>
      </trkpt>
      <trkpt lat="43.64697" lon="1.38802">
        <ele>144</ele>
        <time>2025-04-23T09:24:17Z</time>
      </trkpt>
      <trkpt lat="43.64695" lon="1.38804">
        <ele>144</ele>
        <time>2025-04-23T09:24:18Z</time>
      </trkpt>
      <trkpt lat="43.64692" lon="1.38805">
        <ele>144</ele>
        <time>2025-04-23T09:24:19Z</time>
      </trkpt>
      <trkpt lat="43.6469" lon="1.38806">
        <ele>144</ele>
        <time>2025-04-23T09:24:20Z</time>
      </trkpt>
      <trkpt lat="43.64687" lon="1.38807">
        <ele>144</ele>
        <time>2025-04-23T09:24:21Z</time>
      </trkpt>
      <trkpt lat="43.64682" lon="1.38808">
        <ele>144</ele>
        <time>2025-04-23T09:24:22Z</time>
      </trkpt>
      <trkpt lat="43.64682" lon="1.38808">
        <ele>144</ele>
        <time>2025-04-23T09:24:23Z</time>
      </trkpt>
      <trkpt lat="43.6468" lon="1.38809">
        <ele>144</ele>
        <time>2025-04-23T09:24:24Z</time>
      </trkpt>
      <trkpt lat="43.64677" lon="1.3881">
        <ele>144</ele>
        <time>2025-04-23T09:24:25Z</time>
      </trkpt>
      <trkpt lat="43.64675" lon="1.38811">
        <ele>145</ele>
        <time>2025-04-23T09:24:26Z</time>
      </trkpt>
      <trkpt lat="43.64672" lon="1.38812">
        <ele>145</ele>
        <time>2025-04-23T09:24:27Z</time>
      </trkpt>
      <trkpt lat="43.6467" lon="1.38814">
        <ele>145</ele>
        <time>2025-04-23T09:24:28Z</time>
      </trkpt>
      <trkpt lat="43.64667" lon="1.38815">
        <ele>145</ele>
        <time>2025-04-23T09:24:29Z</time>
      </trkpt>
      <trkpt lat="43.64665" lon="1.38816">
        <ele>145</ele>
        <time>2025-04-23T09:24:30Z</time>
      </trkpt>
      <trkpt lat="43.64662" lon="1.38816">
        <ele>145</ele>
        <time>2025-04-23T09:24:31Z</time>
      </trkpt>
      <trkpt lat="43.6466" lon="1.38817">
        <ele>145</ele>
        <time>2025-04-23T09:24:32Z</time>
      </trkpt>
      <trkpt lat="43.64657" lon="1.38818">
        <ele>145</ele>
        <time>2025-04-23T09:24:33Z</time>
      </trkpt>
      <trkpt lat="43.64655" lon="1.38817">
        <ele>145</ele>
        <time>2025-04-23T09:24:34Z</time>
      </trkpt>
      <trkpt lat="43.64652" lon="1.38815">
        <ele>145</ele>
        <time>2025-04-23T09:24:35Z</time>
      </trkpt>
      <trkpt lat="43.64651" lon="1.38812">
        <ele>145</ele>
        <time>2025-04-23T09:24:36Z</time>
      </trkpt>
      <trkpt lat="43.64649" lon="1.38809">
        <ele>145</ele>
        <time>2025-04-23T09:24:37Z</time>
      </trkpt>
      <trkpt lat="43.64648" lon="1.38805">
        <ele>145</ele>
        <time>2025-04-23T09:24:38Z</time>
      </trkpt>
      <trkpt lat="43.64647" lon="1.38802">
        <ele>145</ele>
        <time>2025-04-23T09:24:39Z</time>
      </trkpt>
      <trkpt lat="43.64646" lon="1.38798">
        <ele>145</ele>
        <time>2025-04-23T09:24:40Z</time>
      </trkpt>
      <trkpt lat="43.64645" lon="1.38795">
        <ele>145</ele>
        <time>2025-04-23T09:24:41Z</time>
      </trkpt>
      <trkpt lat="43.64644" lon="1.38791">
        <ele>145</ele>
        <time>2025-04-23T09:24:42Z</time>
      </trkpt>
      <trkpt lat="43.64642" lon="1.38787">
        <ele>145</ele>
        <time>2025-04-23T09:24:43Z</time>
      </trkpt>
      <trkpt lat="43.64641" lon="1.38784">
        <ele>145</ele>
        <time>2025-04-23T09:24:44Z</time>
      </trkpt>
      <trkpt lat="43.6464" lon="1.3878">
        <ele>145</ele>
        <time>2025-04-23T09:24:45Z</time>
      </trkpt>
      <trkpt lat="43.64638" lon="1.38777">
        <ele>145</ele>
        <time>2025-04-23T09:24:46Z</time>
      </trkpt>
      <trkpt lat="43.64637" lon="1.38774">
        <ele>145</ele>
        <time>2025-04-23T09:24:47Z</time>
      </trkpt>
      <trkpt lat="43.64636" lon="1.3877">
        <ele>145</ele>
        <time>2025-04-23T09:24:48Z</time>
      </trkpt>
      <trkpt lat="43.64636" lon="1.38767">
        <ele>145</ele>
        <time>2025-04-23T09:24:49Z</time>
      </trkpt>
      <trkpt lat="43.64635" lon="1.38765">
        <ele>145</ele>
        <time>2025-04-23T09:24:50Z</time>
      </trkpt>
      <trkpt lat="43.64634" lon="1.38762">
        <ele>146</ele>
        <time>2025-04-23T09:24:51Z</time>
      </trkpt>
      <trkpt lat="43.64633" lon="1.38758">
        <ele>146</ele>
        <time>2025-04-23T09:24:52Z</time>
      </trkpt>
      <trkpt lat="43.64632" lon="1.38755">
        <ele>146</ele>
        <time>2025-04-23T09:24:53Z</time>
      </trkpt>
      <trkpt lat="43.6463" lon="1.38752">
        <ele>146</ele>
        <time>2025-04-23T09:24:54Z</time>
      </trkpt>
      <trkpt lat="43.64629" lon="1.38749">
        <ele>145</ele>
        <time>2025-04-23T09:24:55Z</time>
      </trkpt>
      <trkpt lat="43.64628" lon="1.38746">
        <ele>145</ele>
        <time>2025-04-23T09:24:56Z</time>
      </trkpt>
      <trkpt lat="43.64627" lon="1.38743">
        <ele>145</ele>
        <time>2025-04-23T09:24:57Z</time>
      </trkpt>
      <trkpt lat="43.64626" lon="1.38739">
        <ele>145</ele>
        <time>2025-04-23T09:24:58Z</time>
      </trkpt>
      <trkpt lat="43.64625" lon="1.38736">
        <ele>145</ele>
        <time>2025-04-23T09:24:59Z</time>
      </trkpt>
      <trkpt lat="43.64625" lon="1.38732">
        <ele>146</ele>
        <time>2025-04-23T09:25:00Z</time>
      </trkpt>
      <trkpt lat="43.64624" lon="1.38729">
        <ele>146</ele>
        <time>2025-04-23T09:25:01Z</time>
      </trkpt>
      <trkpt lat="43.64624" lon="1.38726">
        <ele>146</ele>
        <time>2025-04-23T09:25:02Z</time>
      </trkpt>
      <trkpt lat="43.64623" lon="1.38722">
        <ele>146</ele>
        <time>2025-04-23T09:25:03Z</time>
      </trkpt>
      <trkpt lat="43.64623" lon="1.38718">
        <ele>146</ele>
        <time>2025-04-23T09:25:04Z</time>
      </trkpt>
      <trkpt lat="43.64622" lon="1.38715">
        <ele>146</ele>
        <time>2025-04-23T09:25:05Z</time>
      </trkpt>
      <trkpt lat="43.64621" lon="1.38711">
        <ele>146</ele>
        <time>2025-04-23T09:25:06Z</time>
      </trkpt>
      <trkpt lat="43.6462" lon="1.38708">
        <ele>146</ele>
        <time>2025-04-23T09:25:07Z</time>
      </trkpt>
      <trkpt lat="43.64619" lon="1.38704">
        <ele>146</ele>
        <time>2025-04-23T09:25:08Z</time>
      </trkpt>
      <trkpt lat="43.64619" lon="1.38701">
        <ele>146</ele>
        <time>2025-04-23T09:25:09Z</time>
      </trkpt>
      <trkpt lat="43.64618" lon="1.38697">
        <ele>146</ele>
        <time>2025-04-23T09:25:10Z</time>
      </trkpt>
      <trkpt lat="43.64617" lon="1.38694">
        <ele>146</ele>
        <time>2025-04-23T09:25:11Z</time>
      </trkpt>
      <trkpt lat="43.64617" lon="1.3869">
        <ele>146</ele>
        <time>2025-04-23T09:25:12Z</time>
      </trkpt>
      <trkpt lat="43.64616" lon="1.38687">
        <ele>146</ele>
        <time>2025-04-23T09:25:13Z</time>
      </trkpt>
      <trkpt lat="43.64615" lon="1.38684">
        <ele>146</ele>
        <time>2025-04-23T09:25:14Z</time>
      </trkpt>
      <trkpt lat="43.64614" lon="1.3868">
        <ele>146</ele>
        <time>2025-04-23T09:25:15Z</time>
      </trkpt>
      <trkpt lat="43.64613" lon="1.38677">
        <ele>145</ele>
        <time>2025-04-23T09:25:16Z</time>
      </trkpt>
      <trkpt lat="43.64613" lon="1.38674">
        <ele>145</ele>
        <time>2025-04-23T09:25:17Z</time>
      </trkpt>
      <trkpt lat="43.64612" lon="1.38671">
        <ele>145</ele>
        <time>2025-04-23T09:25:18Z</time>
      </trkpt>
      <trkpt lat="43.64612" lon="1.38667">
        <ele>145</ele>
        <time>2025-04-23T09:25:19Z</time>
      </trkpt>
      <trkpt lat="43.64612" lon="1.38664">
        <ele>145</ele>
        <time>2025-04-23T09:25:20Z</time>
      </trkpt>
      <trkpt lat="43.64612" lon="1.38661">
        <ele>145</ele>
        <time>2025-04-23T09:25:21Z</time>
      </trkpt>
      <trkpt lat="43.64612" lon="1.38657">
        <ele>145</ele>
        <time>2025-04-23T09:25:22Z</time>
      </trkpt>
      <trkpt lat="43.64612" lon="1.38654">
        <ele>146</ele>
        <time>2025-04-23T09:25:23Z</time>
      </trkpt>
      <trkpt lat="43.64612" lon="1.38651">
        <ele>146</ele>
        <time>2025-04-23T09:25:24Z</time>
      </trkpt>
      <trkpt lat="43.64612" lon="1.38647">
        <ele>145</ele>
        <time>2025-04-23T09:25:25Z</time>
      </trkpt>
      <trkpt lat="43.64611" lon="1.38644">
        <ele>145</ele>
        <time>2025-04-23T09:25:26Z</time>
      </trkpt>
      <trkpt lat="43.64611" lon="1.38641">
        <ele>145</ele>
        <time>2025-04-23T09:25:27Z</time>
      </trkpt>
      <trkpt lat="43.64611" lon="1.38637">
        <ele>145</ele>
        <time>2025-04-23T09:25:28Z</time>
      </trkpt>
      <trkpt lat="43.64611" lon="1.38634">
        <ele>145</ele>
        <time>2025-04-23T09:25:29Z</time>
      </trkpt>
      <trkpt lat="43.64611" lon="1.3863">
        <ele>146</ele>
        <time>2025-04-23T09:25:30Z</time>
      </trkpt>
      <trkpt lat="43.6461" lon="1.38627">
        <ele>146</ele>
        <time>2025-04-23T09:25:31Z</time>
      </trkpt>
      <trkpt lat="43.6461" lon="1.38625">
        <ele>146</ele>
        <time>2025-04-23T09:25:32Z</time>
      </trkpt>
      <trkpt lat="43.64609" lon="1.38622">
        <ele>146</ele>
        <time>2025-04-23T09:25:33Z</time>
      </trkpt>
      <trkpt lat="43.64608" lon="1.38618">
        <ele>146</ele>
        <time>2025-04-23T09:25:34Z</time>
      </trkpt>
      <trkpt lat="43.64608" lon="1.38616">
        <ele>146</ele>
        <time>2025-04-23T09:25:35Z</time>
      </trkpt>
      <trkpt lat="43.64607" lon="1.38612">
        <ele>146</ele>
        <time>2025-04-23T09:25:36Z</time>
      </trkpt>
      <trkpt lat="43.64606" lon="1.38609">
        <ele>146</ele>
        <time>2025-04-23T09:25:37Z</time>
      </trkpt>
      <trkpt lat="43.64606" lon="1.38605">
        <ele>146</ele>
        <time>2025-04-23T09:25:38Z</time>
      </trkpt>
      <trkpt lat="43.64605" lon="1.38601">
        <ele>145</ele>
        <time>2025-04-23T09:25:39Z</time>
      </trkpt>
      <trkpt lat="43.64605" lon="1.38597">
        <ele>145</ele>
        <time>2025-04-23T09:25:40Z</time>
      </trkpt>
      <trkpt lat="43.64605" lon="1.38593">
        <ele>145</ele>
        <time>2025-04-23T09:25:41Z</time>
      </trkpt>
      <trkpt lat="43.64605" lon="1.38589">
        <ele>145</ele>
        <time>2025-04-23T09:25:42Z</time>
      </trkpt>
      <trkpt lat="43.64604" lon="1.38585">
        <ele>145</ele>
        <time>2025-04-23T09:25:43Z</time>
      </trkpt>
      <trkpt lat="43.64604" lon="1.38582">
        <ele>145</ele>
        <time>2025-04-23T09:25:44Z</time>
      </trkpt>
      <trkpt lat="43.64603" lon="1.38578">
        <ele>145</ele>
        <time>2025-04-23T09:25:45Z</time>
      </trkpt>
      <trkpt lat="43.64603" lon="1.38575">
        <ele>145</ele>
        <time>2025-04-23T09:25:46Z</time>
      </trkpt>
      <trkpt lat="43.64602" lon="1.38572">
        <ele>145</ele>
        <time>2025-04-23T09:25:47Z</time>
      </trkpt>
      <trkpt lat="43.64602" lon="1.38568">
        <ele>145</ele>
        <time>2025-04-23T09:25:48Z</time>
      </trkpt>
      <trkpt lat="43.64601" lon="1.38565">
        <ele>145</ele>
        <time>2025-04-23T09:25:49Z</time>
      </trkpt>
      <trkpt lat="43.64601" lon="1.38562">
        <ele>145</ele>
        <time>2025-04-23T09:25:50Z</time>
      </trkpt>
      <trkpt lat="43.646" lon="1.38558">
        <ele>145</ele>
        <time>2025-04-23T09:25:51Z</time>
      </trkpt>
      <trkpt lat="43.64598" lon="1.38555">
        <ele>145</ele>
        <time>2025-04-23T09:25:52Z</time>
      </trkpt>
      <trkpt lat="43.64597" lon="1.38552">
        <ele>145</ele>
        <time>2025-04-23T09:25:53Z</time>
      </trkpt>
      <trkpt lat="43.64596" lon="1.38548">
        <ele>145</ele>
        <time>2025-04-23T09:25:54Z</time>
      </trkpt>
      <trkpt lat="43.64595" lon="1.38545">
        <ele>145</ele>
        <time>2025-04-23T09:25:55Z</time>
      </trkpt>
      <trkpt lat="43.64594" lon="1.38541">
        <ele>145</ele>
        <time>2025-04-23T09:25:56Z</time>
      </trkpt>
      <trkpt lat="43.64594" lon="1.38538">
        <ele>145</ele>
        <time>2025-04-23T09:25:57Z</time>
      </trkpt>
      <trkpt lat="43.64593" lon="1.38535">
        <ele>145</ele>
        <time>2025-04-23T09:25:58Z</time>
      </trkpt>
      <trkpt lat="43.64593" lon="1.38532">
        <ele>145</ele>
        <time>2025-04-23T09:25:59Z</time>
      </trkpt>
      <trkpt lat="43.64592" lon="1.38528">
        <ele>145</ele>
        <time>2025-04-23T09:26:00Z</time>
      </trkpt>
      <trkpt lat="43.64591" lon="1.38525">
        <ele>146</ele>
        <time>2025-04-23T09:26:01Z</time>
      </trkpt>
      <trkpt lat="43.6459" lon="1.38522">
        <ele>146</ele>
        <time>2025-04-23T09:26:02Z</time>
      </trkpt>
      <trkpt lat="43.6459" lon="1.38518">
        <ele>145</ele>
        <time>2025-04-23T09:26:03Z</time>
      </trkpt>
      <trkpt lat="43.6459" lon="1.38515">
        <ele>145</ele>
        <time>2025-04-23T09:26:04Z</time>
      </trkpt>
      <trkpt lat="43.6459" lon="1.38511">
        <ele>145</ele>
        <time>2025-04-23T09:26:05Z</time>
      </trkpt>
      <trkpt lat="43.6459" lon="1.38508">
        <ele>145</ele>
        <time>2025-04-23T09:26:06Z</time>
      </trkpt>
      <trkpt lat="43.6459" lon="1.38504">
        <ele>145</ele>
        <time>2025-04-23T09:26:07Z</time>
      </trkpt>
      <trkpt lat="43.64589" lon="1.38501">
        <ele>146</ele>
        <time>2025-04-23T09:26:08Z</time>
      </trkpt>
      <trkpt lat="43.64588" lon="1.38498">
        <ele>146</ele>
        <time>2025-04-23T09:26:09Z</time>
      </trkpt>
      <trkpt lat="43.64587" lon="1.38495">
        <ele>146</ele>
        <time>2025-04-23T09:26:10Z</time>
      </trkpt>
      <trkpt lat="43.64586" lon="1.38492">
        <ele>146</ele>
        <time>2025-04-23T09:26:11Z</time>
      </trkpt>
      <trkpt lat="43.64585" lon="1.38489">
        <ele>146</ele>
        <time>2025-04-23T09:26:12Z</time>
      </trkpt>
      <trkpt lat="43.64585" lon="1.38486">
        <ele>146</ele>
        <time>2025-04-23T09:26:13Z</time>
      </trkpt>
      <trkpt lat="43.64585" lon="1.38483">
        <ele>146</ele>
        <time>2025-04-23T09:26:14Z</time>
      </trkpt>
      <trkpt lat="43.64585" lon="1.38483">
        <ele>146</ele>
        <time>2025-04-23T09:26:15Z</time>
      </trkpt>
      <trkpt lat="43.64586" lon="1.38479">
        <ele>146</ele>
        <time>2025-04-23T09:26:16Z</time>
      </trkpt>
      <trkpt lat="43.64586" lon="1.38479">
        <ele>147</ele>
        <time>2025-04-23T09:26:17Z</time>
      </trkpt>
      <trkpt lat="43.64583" lon="1.38474">
        <ele>147</ele>
        <time>2025-04-23T09:26:18Z</time>
      </trkpt>
      <trkpt lat="43.64581" lon="1.38471">
        <ele>147</ele>
        <time>2025-04-23T09:26:19Z</time>
      </trkpt>
      <trkpt lat="43.6458" lon="1.38467">
        <ele>147</ele>
        <time>2025-04-23T09:26:20Z</time>
      </trkpt>
      <trkpt lat="43.64578" lon="1.38464">
        <ele>147</ele>
        <time>2025-04-23T09:26:21Z</time>
      </trkpt>
      <trkpt lat="43.64578" lon="1.3846">
        <ele>147</ele>
        <time>2025-04-23T09:26:22Z</time>
      </trkpt>
      <trkpt lat="43.64578" lon="1.38456">
        <ele>147</ele>
        <time>2025-04-23T09:26:23Z</time>
      </trkpt>
      <trkpt lat="43.64577" lon="1.38453">
        <ele>147</ele>
        <time>2025-04-23T09:26:24Z</time>
      </trkpt>
      <trkpt lat="43.64576" lon="1.38449">
        <ele>147</ele>
        <time>2025-04-23T09:26:25Z</time>
      </trkpt>
      <trkpt lat="43.64576" lon="1.38445">
        <ele>147</ele>
        <time>2025-04-23T09:26:26Z</time>
      </trkpt>
      <trkpt lat="43.64575" lon="1.38441">
        <ele>147</ele>
        <time>2025-04-23T09:26:27Z</time>
      </trkpt>
      <trkpt lat="43.64575" lon="1.38437">
        <ele>147</ele>
        <time>2025-04-23T09:26:28Z</time>
      </trkpt>
      <trkpt lat="43.64574" lon="1.38434">
        <ele>147</ele>
        <time>2025-04-23T09:26:29Z</time>
      </trkpt>
      <trkpt lat="43.64574" lon="1.3843">
        <ele>147</ele>
        <time>2025-04-23T09:26:30Z</time>
      </trkpt>
      <trkpt lat="43.64573" lon="1.38427">
        <ele>147</ele>
        <time>2025-04-23T09:26:31Z</time>
      </trkpt>
      <trkpt lat="43.64573" lon="1.38423">
        <ele>147</ele>
        <time>2025-04-23T09:26:32Z</time>
      </trkpt>
      <trkpt lat="43.64573" lon="1.3842">
        <ele>147</ele>
        <time>2025-04-23T09:26:33Z</time>
      </trkpt>
      <trkpt lat="43.64572" lon="1.38416">
        <ele>148</ele>
        <time>2025-04-23T09:26:34Z</time>
      </trkpt>
      <trkpt lat="43.64571" lon="1.38409">
        <ele>148</ele>
        <time>2025-04-23T09:26:35Z</time>
      </trkpt>
      <trkpt lat="43.64571" lon="1.38409">
        <ele>148</ele>
        <time>2025-04-23T09:26:36Z</time>
      </trkpt>
      <trkpt lat="43.64571" lon="1.38405">
        <ele>148</ele>
        <time>2025-04-23T09:26:37Z</time>
      </trkpt>
      <trkpt lat="43.6457" lon="1.38402">
        <ele>147</ele>
        <time>2025-04-23T09:26:38Z</time>
      </trkpt>
      <trkpt lat="43.64569" lon="1.38398">
        <ele>147</ele>
        <time>2025-04-23T09:26:39Z</time>
      </trkpt>
      <trkpt lat="43.64569" lon="1.38395">
        <ele>147</ele>
        <time>2025-04-23T09:26:40Z</time>
      </trkpt>
      <trkpt lat="43.64568" lon="1.38391">
        <ele>147</ele>
        <time>2025-04-23T09:26:41Z</time>
      </trkpt>
      <trkpt lat="43.64568" lon="1.38388">
        <ele>147</ele>
        <time>2025-04-23T09:26:42Z</time>
      </trkpt>
      <trkpt lat="43.64567" lon="1.38384">
        <ele>148</ele>
        <time>2025-04-23T09:26:43Z</time>
      </trkpt>
      <trkpt lat="43.64567" lon="1.38381">
        <ele>148</ele>
        <time>2025-04-23T09:26:44Z</time>
      </trkpt>
      <trkpt lat="43.64567" lon="1.38378">
        <ele>147</ele>
        <time>2025-04-23T09:26:45Z</time>
      </trkpt>
      <trkpt lat="43.64566" lon="1.38374">
        <ele>147</ele>
        <time>2025-04-23T09:26:46Z</time>
      </trkpt>
      <trkpt lat="43.64565" lon="1.38371">
        <ele>147</ele>
        <time>2025-04-23T09:26:47Z</time>
      </trkpt>
      <trkpt lat="43.64565" lon="1.38367">
        <ele>147</ele>
        <time>2025-04-23T09:26:48Z</time>
      </trkpt>
      <trkpt lat="43.64564" lon="1.38364">
        <ele>147</ele>
        <time>2025-04-23T09:26:49Z</time>
      </trkpt>
      <trkpt lat="43.64563" lon="1.3836">
        <ele>147</ele>
        <time>2025-04-23T09:26:50Z</time>
      </trkpt>
      <trkpt lat="43.64563" lon="1.38356">
        <ele>147</ele>
        <time>2025-04-23T09:26:51Z</time>
      </trkpt>
      <trkpt lat="43.64562" lon="1.38353">
        <ele>147</ele>
        <time>2025-04-23T09:26:52Z</time>
      </trkpt>
      <trkpt lat="43.64562" lon="1.38349">
        <ele>147</ele>
        <time>2025-04-23T09:26:53Z</time>
      </trkpt>
      <trkpt lat="43.64562" lon="1.38345">
        <ele>147</ele>
        <time>2025-04-23T09:26:54Z</time>
      </trkpt>
      <trkpt lat="43.64561" lon="1.38342">
        <ele>147</ele>
        <time>2025-04-23T09:26:55Z</time>
      </trkpt>
      <trkpt lat="43.64561" lon="1.38337">
        <ele>147</ele>
        <time>2025-04-23T09:26:56Z</time>
      </trkpt>
      <trkpt lat="43.6456" lon="1.38336">
        <ele>147</ele>
        <time>2025-04-23T09:26:57Z</time>
      </trkpt>
      <trkpt lat="43.6456" lon="1.38332">
        <ele>147</ele>
        <time>2025-04-23T09:26:58Z</time>
      </trkpt>
      <trkpt lat="43.64559" lon="1.38329">
        <ele>147</ele>
        <time>2025-04-23T09:26:59Z</time>
      </trkpt>
      <trkpt lat="43.64558" lon="1.38326">
        <ele>147</ele>
        <time>2025-04-23T09:27:00Z</time>
      </trkpt>
      <trkpt lat="43.64558" lon="1.38322">
        <ele>147</ele>
        <time>2025-04-23T09:27:01Z</time>
      </trkpt>
      <trkpt lat="43.64558" lon="1.38318">
        <ele>147</ele>
        <time>2025-04-23T09:27:02Z</time>
      </trkpt>
      <trkpt lat="43.64557" lon="1.38315">
        <ele>147</ele>
        <time>2025-04-23T09:27:03Z</time>
      </trkpt>
      <trkpt lat="43.64557" lon="1.38311">
        <ele>148</ele>
        <time>2025-04-23T09:27:04Z</time>
      </trkpt>
      <trkpt lat="43.64556" lon="1.38308">
        <ele>148</ele>
        <time>2025-04-23T09:27:05Z</time>
      </trkpt>
      <trkpt lat="43.64556" lon="1.38305">
        <ele>147</ele>
        <time>2025-04-23T09:27:06Z</time>
      </trkpt>
      <trkpt lat="43.64556" lon="1.38301">
        <ele>146</ele>
        <time>2025-04-23T09:27:07Z</time>
      </trkpt>
      <trkpt lat="43.64554" lon="1.38299">
        <ele>146</ele>
        <time>2025-04-23T09:27:08Z</time>
      </trkpt>
      <trkpt lat="43.64552" lon="1.38296">
        <ele>146</ele>
        <time>2025-04-23T09:27:09Z</time>
      </trkpt>
      <trkpt lat="43.6455" lon="1.38295">
        <ele>146</ele>
        <time>2025-04-23T09:27:10Z</time>
      </trkpt>
      <trkpt lat="43.64547" lon="1.38294">
        <ele>146</ele>
        <time>2025-04-23T09:27:11Z</time>
      </trkpt>
      <trkpt lat="43.64545" lon="1.38294">
        <ele>147</ele>
        <time>2025-04-23T09:27:12Z</time>
      </trkpt>
      <trkpt lat="43.64542" lon="1.38293">
        <ele>147</ele>
        <time>2025-04-23T09:27:13Z</time>
      </trkpt>
      <trkpt lat="43.6454" lon="1.38293">
        <ele>147</ele>
        <time>2025-04-23T09:27:14Z</time>
      </trkpt>
      <trkpt lat="43.64537" lon="1.38293">
        <ele>147</ele>
        <time>2025-04-23T09:27:15Z</time>
      </trkpt>
      <trkpt lat="43.64535" lon="1.38292">
        <ele>147</ele>
        <time>2025-04-23T09:27:16Z</time>
      </trkpt>
      <trkpt lat="43.64532" lon="1.38291">
        <ele>147</ele>
        <time>2025-04-23T09:27:17Z</time>
      </trkpt>
      <trkpt lat="43.6453" lon="1.38291">
        <ele>146</ele>
        <time>2025-04-23T09:27:18Z</time>
      </trkpt>
      <trkpt lat="43.64527" lon="1.3829">
        <ele>146</ele>
        <time>2025-04-23T09:27:19Z</time>
      </trkpt>
      <trkpt lat="43.64525" lon="1.38291">
        <ele>146</ele>
        <time>2025-04-23T09:27:20Z</time>
      </trkpt>
      <trkpt lat="43.64522" lon="1.38291">
        <ele>146</ele>
        <time>2025-04-23T09:27:21Z</time>
      </trkpt>
      <trkpt lat="43.6452" lon="1.38292">
        <ele>146</ele>
        <time>2025-04-23T09:27:22Z</time>
      </trkpt>
      <trkpt lat="43.64517" lon="1.38293">
        <ele>146</ele>
        <time>2025-04-23T09:27:23Z</time>
      </trkpt>
      <trkpt lat="43.64515" lon="1.38294">
        <ele>146</ele>
        <time>2025-04-23T09:27:24Z</time>
      </trkpt>
      <trkpt lat="43.64513" lon="1.38295">
        <ele>146</ele>
        <time>2025-04-23T09:27:25Z</time>
      </trkpt>
      <trkpt lat="43.64511" lon="1.38296">
        <ele>146</ele>
        <time>2025-04-23T09:27:26Z</time>
      </trkpt>
      <trkpt lat="43.6451" lon="1.38297">
        <ele>146</ele>
        <time>2025-04-23T09:27:27Z</time>
      </trkpt>
      <trkpt lat="43.64508" lon="1.38299">
        <ele>146</ele>
        <time>2025-04-23T09:27:28Z</time>
      </trkpt>
      <trkpt lat="43.64506" lon="1.383">
        <ele>146</ele>
        <time>2025-04-23T09:27:29Z</time>
      </trkpt>
      <trkpt lat="43.64505" lon="1.38302">
        <ele>146</ele>
        <time>2025-04-23T09:27:30Z</time>
      </trkpt>
      <trkpt lat="43.64503" lon="1.38303">
        <ele>146</ele>
        <time>2025-04-23T09:27:31Z</time>
      </trkpt>
      <trkpt lat="43.645" lon="1.38304">
        <ele>146</ele>
        <time>2025-04-23T09:27:32Z</time>
      </trkpt>
      <trkpt lat="43.64497" lon="1.38305">
        <ele>146</ele>
        <time>2025-04-23T09:27:33Z</time>
      </trkpt>
      <trkpt lat="43.64495" lon="1.38306">
        <ele>146</ele>
        <time>2025-04-23T09:27:34Z</time>
      </trkpt>
      <trkpt lat="43.64492" lon="1.38306">
        <ele>146</ele>
        <time>2025-04-23T09:27:35Z</time>
      </trkpt>
      <trkpt lat="43.64489" lon="1.38304">
        <ele>145</ele>
        <time>2025-04-23T09:27:36Z</time>
      </trkpt>
      <trkpt lat="43.64487" lon="1.383">
        <ele>146</ele>
        <time>2025-04-23T09:27:37Z</time>
      </trkpt>
      <trkpt lat="43.64487" lon="1.38296">
        <ele>146</ele>
        <time>2025-04-23T09:27:38Z</time>
      </trkpt>
      <trkpt lat="43.64486" lon="1.38293">
        <ele>146</ele>
        <time>2025-04-23T09:27:39Z</time>
      </trkpt>
      <trkpt lat="43.64485" lon="1.38289">
        <ele>146</ele>
        <time>2025-04-23T09:27:40Z</time>
      </trkpt>
      <trkpt lat="43.64484" lon="1.38286">
        <ele>146</ele>
        <time>2025-04-23T09:27:41Z</time>
      </trkpt>
      <trkpt lat="43.64483" lon="1.38283">
        <ele>146</ele>
        <time>2025-04-23T09:27:42Z</time>
      </trkpt>
      <trkpt lat="43.64482" lon="1.3828">
        <ele>146</ele>
        <time>2025-04-23T09:27:43Z</time>
      </trkpt>
      <trkpt lat="43.64481" lon="1.38276">
        <ele>146</ele>
        <time>2025-04-23T09:27:44Z</time>
      </trkpt>
      <trkpt lat="43.64481" lon="1.38272">
        <ele>146</ele>
        <time>2025-04-23T09:27:45Z</time>
      </trkpt>
      <trkpt lat="43.6448" lon="1.38269">
        <ele>146</ele>
        <time>2025-04-23T09:27:46Z</time>
      </trkpt>
      <trkpt lat="43.64479" lon="1.38265">
        <ele>146</ele>
        <time>2025-04-23T09:27:47Z</time>
      </trkpt>
      <trkpt lat="43.64478" lon="1.38261">
        <ele>146</ele>
        <time>2025-04-23T09:27:48Z</time>
      </trkpt>
      <trkpt lat="43.64476" lon="1.38257">
        <ele>146</ele>
        <time>2025-04-23T09:27:49Z</time>
      </trkpt>
      <trkpt lat="43.64475" lon="1.38254">
        <ele>146</ele>
        <time>2025-04-23T09:27:50Z</time>
      </trkpt>
      <trkpt lat="43.64475" lon="1.3825">
        <ele>146</ele>
        <time>2025-04-23T09:27:51Z</time>
      </trkpt>
      <trkpt lat="43.64474" lon="1.38246">
        <ele>146</ele>
        <time>2025-04-23T09:27:52Z</time>
      </trkpt>
      <trkpt lat="43.64473" lon="1.38243">
        <ele>146</ele>
        <time>2025-04-23T09:27:53Z</time>
      </trkpt>
      <trkpt lat="43.64472" lon="1.38239">
        <ele>146</ele>
        <time>2025-04-23T09:27:54Z</time>
      </trkpt>
      <trkpt lat="43.64471" lon="1.38236">
        <ele>146</ele>
        <time>2025-04-23T09:27:55Z</time>
      </trkpt>
      <trkpt lat="43.6447" lon="1.38232">
        <ele>146</ele>
        <time>2025-04-23T09:27:56Z</time>
      </trkpt>
      <trkpt lat="43.64469" lon="1.38228">
        <ele>146</ele>
        <time>2025-04-23T09:27:57Z</time>
      </trkpt>
      <trkpt lat="43.64468" lon="1.38225">
        <ele>146</ele>
        <time>2025-04-23T09:27:58Z</time>
      </trkpt>
      <trkpt lat="43.64468" lon="1.38221">
        <ele>146</ele>
        <time>2025-04-23T09:27:59Z</time>
      </trkpt>
      <trkpt lat="43.64467" lon="1.38217">
        <ele>146</ele>
        <time>2025-04-23T09:28:00Z</time>
      </trkpt>
      <trkpt lat="43.64466" lon="1.38213">
        <ele>146</ele>
        <time>2025-04-23T09:28:01Z</time>
      </trkpt>
      <trkpt lat="43.64465" lon="1.3821">
        <ele>146</ele>
        <time>2025-04-23T09:28:02Z</time>
      </trkpt>
      <trkpt lat="43.64465" lon="1.38206">
        <ele>146</ele>
        <time>2025-04-23T09:28:03Z</time>
      </trkpt>
      <trkpt lat="43.64464" lon="1.38202">
        <ele>146</ele>
        <time>2025-04-23T09:28:04Z</time>
      </trkpt>
      <trkpt lat="43.64463" lon="1.38199">
        <ele>146</ele>
        <time>2025-04-23T09:28:05Z</time>
      </trkpt>
      <trkpt lat="43.64462" lon="1.38195">
        <ele>146</ele>
        <time>2025-04-23T09:28:06Z</time>
      </trkpt>
      <trkpt lat="43.64461" lon="1.38191">
        <ele>146</ele>
        <time>2025-04-23T09:28:07Z</time>
      </trkpt>
      <trkpt lat="43.64461" lon="1.38187">
        <ele>146</ele>
        <time>2025-04-23T09:28:08Z</time>
      </trkpt>
      <trkpt lat="43.64461" lon="1.38184">
        <ele>147</ele>
        <time>2025-04-23T09:28:09Z</time>
      </trkpt>
      <trkpt lat="43.64462" lon="1.3818">
        <ele>147</ele>
        <time>2025-04-23T09:28:10Z</time>
      </trkpt>
      <trkpt lat="43.64464" lon="1.38178">
        <ele>146</ele>
        <time>2025-04-23T09:28:11Z</time>
      </trkpt>
      <trkpt lat="43.64467" lon="1.38175">
        <ele>146</ele>
        <time>2025-04-23T09:28:12Z</time>
      </trkpt>
      <trkpt lat="43.6447" lon="1.38173">
        <ele>146</ele>
        <time>2025-04-23T09:28:13Z</time>
      </trkpt>
      <trkpt lat="43.64472" lon="1.3817">
        <ele>146</ele>
        <time>2025-04-23T09:28:14Z</time>
      </trkpt>
      <trkpt lat="43.64475" lon="1.38167">
        <ele>146</ele>
        <time>2025-04-23T09:28:15Z</time>
      </trkpt>
      <trkpt lat="43.64477" lon="1.38165">
        <ele>146</ele>
        <time>2025-04-23T09:28:16Z</time>
      </trkpt>
      <trkpt lat="43.64479" lon="1.38163">
        <ele>146</ele>
        <time>2025-04-23T09:28:17Z</time>
      </trkpt>
      <trkpt lat="43.64482" lon="1.38161">
        <ele>146</ele>
        <time>2025-04-23T09:28:18Z</time>
      </trkpt>
      <trkpt lat="43.64484" lon="1.38159">
        <ele>146</ele>
        <time>2025-04-23T09:28:19Z</time>
      </trkpt>
      <trkpt lat="43.64486" lon="1.38156">
        <ele>146</ele>
        <time>2025-04-23T09:28:20Z</time>
      </trkpt>
      <trkpt lat="43.64488" lon="1.38153">
        <ele>145</ele>
        <time>2025-04-23T09:28:21Z</time>
      </trkpt>
      <trkpt lat="43.6449" lon="1.38151">
        <ele>145</ele>
        <time>2025-04-23T09:28:22Z</time>
      </trkpt>
      <trkpt lat="43.64492" lon="1.38148">
        <ele>146</ele>
        <time>2025-04-23T09:28:23Z</time>
      </trkpt>
      <trkpt lat="43.64494" lon="1.38146">
        <ele>146</ele>
        <time>2025-04-23T09:28:24Z</time>
      </trkpt>
      <trkpt lat="43.64497" lon="1.38143">
        <ele>146</ele>
        <time>2025-04-23T09:28:25Z</time>
      </trkpt>
      <trkpt lat="43.64499" lon="1.3814">
        <ele>146</ele>
        <time>2025-04-23T09:28:26Z</time>
      </trkpt>
      <trkpt lat="43.64501" lon="1.38138">
        <ele>146</ele>
        <time>2025-04-23T09:28:27Z</time>
      </trkpt>
      <trkpt lat="43.64503" lon="1.38135">
        <ele>146</ele>
        <time>2025-04-23T09:28:28Z</time>
      </trkpt>
      <trkpt lat="43.64504" lon="1.38131">
        <ele>146</ele>
        <time>2025-04-23T09:28:29Z</time>
      </trkpt>
      <trkpt lat="43.64506" lon="1.38128">
        <ele>146</ele>
        <time>2025-04-23T09:28:30Z</time>
      </trkpt>
      <trkpt lat="43.64507" lon="1.38123">
        <ele>146</ele>
        <time>2025-04-23T09:28:31Z</time>
      </trkpt>
      <trkpt lat="43.64507" lon="1.38121">
        <ele>146</ele>
        <time>2025-04-23T09:28:32Z</time>
      </trkpt>
      <trkpt lat="43.64508" lon="1.38117">
        <ele>146</ele>
        <time>2025-04-23T09:28:33Z</time>
      </trkpt>
      <trkpt lat="43.64509" lon="1.38114">
        <ele>146</ele>
        <time>2025-04-23T09:28:34Z</time>
      </trkpt>
      <trkpt lat="43.64511" lon="1.38111">
        <ele>145</ele>
        <time>2025-04-23T09:28:35Z</time>
      </trkpt>
      <trkpt lat="43.64512" lon="1.38108">
        <ele>145</ele>
        <time>2025-04-23T09:28:36Z</time>
      </trkpt>
      <trkpt lat="43.64514" lon="1.38105">
        <ele>145</ele>
        <time>2025-04-23T09:28:37Z</time>
      </trkpt>
      <trkpt lat="43.64516" lon="1.38101">
        <ele>145</ele>
        <time>2025-04-23T09:28:38Z</time>
      </trkpt>
      <trkpt lat="43.64517" lon="1.381">
        <ele>145</ele>
        <time>2025-04-23T09:28:39Z</time>
      </trkpt>
      <trkpt lat="43.64519" lon="1.38097">
        <ele>145</ele>
        <time>2025-04-23T09:28:40Z</time>
      </trkpt>
      <trkpt lat="43.64521" lon="1.38094">
        <ele>145</ele>
        <time>2025-04-23T09:28:41Z</time>
      </trkpt>
      <trkpt lat="43.64523" lon="1.38091">
        <ele>145</ele>
        <time>2025-04-23T09:28:42Z</time>
      </trkpt>
      <trkpt lat="43.64524" lon="1.38088">
        <ele>145</ele>
        <time>2025-04-23T09:28:43Z</time>
      </trkpt>
      <trkpt lat="43.64525" lon="1.38085">
        <ele>145</ele>
        <time>2025-04-23T09:28:44Z</time>
      </trkpt>
      <trkpt lat="43.64527" lon="1.38083">
        <ele>145</ele>
        <time>2025-04-23T09:28:45Z</time>
      </trkpt>
      <trkpt lat="43.64529" lon="1.38081">
        <ele>145</ele>
        <time>2025-04-23T09:28:46Z</time>
      </trkpt>
      <trkpt lat="43.64531" lon="1.38078">
        <ele>145</ele>
        <time>2025-04-23T09:28:47Z</time>
      </trkpt>
      <trkpt lat="43.64532" lon="1.38076">
        <ele>145</ele>
        <time>2025-04-23T09:28:48Z</time>
      </trkpt>
      <trkpt lat="43.64534" lon="1.38073">
        <ele>145</ele>
        <time>2025-04-23T09:28:49Z</time>
      </trkpt>
      <trkpt lat="43.64536" lon="1.38071">
        <ele>145</ele>
        <time>2025-04-23T09:28:50Z</time>
      </trkpt>
      <trkpt lat="43.64537" lon="1.38069">
        <ele>145</ele>
        <time>2025-04-23T09:28:51Z</time>
      </trkpt>
      <trkpt lat="43.64538" lon="1.38066">
        <ele>145</ele>
        <time>2025-04-23T09:28:52Z</time>
      </trkpt>
      <trkpt lat="43.6454" lon="1.38064">
        <ele>145</ele>
        <time>2025-04-23T09:28:53Z</time>
      </trkpt>
      <trkpt lat="43.64542" lon="1.38062">
        <ele>145</ele>
        <time>2025-04-23T09:28:54Z</time>
      </trkpt>
      <trkpt lat="43.64544" lon="1.3806">
        <ele>145</ele>
        <time>2025-04-23T09:28:55Z</time>
      </trkpt>
      <trkpt lat="43.64545" lon="1.38058">
        <ele>145</ele>
        <time>2025-04-23T09:28:56Z</time>
      </trkpt>
      <trkpt lat="43.64547" lon="1.38056">
        <ele>145</ele>
        <time>2025-04-23T09:28:57Z</time>
      </trkpt>
      <trkpt lat="43.6455" lon="1.38054">
        <ele>145</ele>
        <time>2025-04-23T09:28:58Z</time>
      </trkpt>
      <trkpt lat="43.64552" lon="1.38052">
        <ele>145</ele>
        <time>2025-04-23T09:28:59Z</time>
      </trkpt>
      <trkpt lat="43.64554" lon="1.3805">
        <ele>145</ele>
        <time>2025-04-23T09:29:00Z</time>
      </trkpt>
      <trkpt lat="43.64556" lon="1.38048">
        <ele>145</ele>
        <time>2025-04-23T09:29:01Z</time>
      </trkpt>
      <trkpt lat="43.64558" lon="1.38046">
        <ele>145</ele>
        <time>2025-04-23T09:29:02Z</time>
      </trkpt>
      <trkpt lat="43.6456" lon="1.38043">
        <ele>145</ele>
        <time>2025-04-23T09:29:03Z</time>
      </trkpt>
      <trkpt lat="43.64562" lon="1.38041">
        <ele>145</ele>
        <time>2025-04-23T09:29:04Z</time>
      </trkpt>
      <trkpt lat="43.64564" lon="1.38038">
        <ele>145</ele>
        <time>2025-04-23T09:29:05Z</time>
      </trkpt>
      <trkpt lat="43.64566" lon="1.38036">
        <ele>145</ele>
        <time>2025-04-23T09:29:06Z</time>
      </trkpt>
      <trkpt lat="43.64568" lon="1.38033">
        <ele>145</ele>
        <time>2025-04-23T09:29:07Z</time>
      </trkpt>
      <trkpt lat="43.6457" lon="1.3803">
        <ele>145</ele>
        <time>2025-04-23T09:29:08Z</time>
      </trkpt>
      <trkpt lat="43.64571" lon="1.38027">
        <ele>145</ele>
        <time>2025-04-23T09:29:09Z</time>
      </trkpt>
      <trkpt lat="43.64572" lon="1.38024">
        <ele>145</ele>
        <time>2025-04-23T09:29:10Z</time>
      </trkpt>
      <trkpt lat="43.64572" lon="1.38021">
        <ele>145</ele>
        <time>2025-04-23T09:29:11Z</time>
      </trkpt>
      <trkpt lat="43.6457" lon="1.38018">
        <ele>145</ele>
        <time>2025-04-23T09:29:12Z</time>
      </trkpt>
      <trkpt lat="43.64568" lon="1.38016">
        <ele>145</ele>
        <time>2025-04-23T09:29:13Z</time>
      </trkpt>
      <trkpt lat="43.64566" lon="1.38014">
        <ele>145</ele>
        <time>2025-04-23T09:29:14Z</time>
      </trkpt>
      <trkpt lat="43.64563" lon="1.38012">
        <ele>145</ele>
        <time>2025-04-23T09:29:15Z</time>
      </trkpt>
      <trkpt lat="43.64561" lon="1.38011">
        <ele>145</ele>
        <time>2025-04-23T09:29:16Z</time>
      </trkpt>
      <trkpt lat="43.64559" lon="1.38009">
        <ele>145</ele>
        <time>2025-04-23T09:29:17Z</time>
      </trkpt>
      <trkpt lat="43.64557" lon="1.38007">
        <ele>145</ele>
        <time>2025-04-23T09:29:18Z</time>
      </trkpt>
      <trkpt lat="43.64555" lon="1.38005">
        <ele>145</ele>
        <time>2025-04-23T09:29:19Z</time>
      </trkpt>
      <trkpt lat="43.64552" lon="1.38004">
        <ele>145</ele>
        <time>2025-04-23T09:29:20Z</time>
      </trkpt>
      <trkpt lat="43.6455" lon="1.38003">
        <ele>145</ele>
        <time>2025-04-23T09:29:21Z</time>
      </trkpt>
      <trkpt lat="43.64547" lon="1.38002">
        <ele>145</ele>
        <time>2025-04-23T09:29:22Z</time>
      </trkpt>
      <trkpt lat="43.64547" lon="1.38002">
        <ele>145</ele>
        <time>2025-04-23T09:29:23Z</time>
      </trkpt>
      <trkpt lat="43.64544" lon="1.38001">
        <ele>145</ele>
        <time>2025-04-23T09:29:24Z</time>
      </trkpt>
      <trkpt lat="43.64544" lon="1.38001">
        <ele>145</ele>
        <time>2025-04-23T09:29:25Z</time>
      </trkpt>
      <trkpt lat="43.64543" lon="1.37997">
        <ele>145</ele>
        <time>2025-04-23T09:29:26Z</time>
      </trkpt>
      <trkpt lat="43.64543" lon="1.37997">
        <ele>145</ele>
        <time>2025-04-23T09:29:27Z</time>
      </trkpt>
      <trkpt lat="43.64545" lon="1.37993">
        <ele>145</ele>
        <time>2025-04-23T09:29:28Z</time>
      </trkpt>
      <trkpt lat="43.64545" lon="1.37993">
        <ele>145</ele>
        <time>2025-04-23T09:29:29Z</time>
      </trkpt>
      <trkpt lat="43.64547" lon="1.3799">
        <ele>145</ele>
        <time>2025-04-23T09:29:30Z</time>
      </trkpt>
      <trkpt lat="43.64547" lon="1.3799">
        <ele>145</ele>
        <time>2025-04-23T09:29:31Z</time>
      </trkpt>
      <trkpt lat="43.6455" lon="1.37988">
        <ele>145</ele>
        <time>2025-04-23T09:29:32Z</time>
      </trkpt>
      <trkpt lat="43.6455" lon="1.37988">
        <ele>145</ele>
        <time>2025-04-23T09:29:33Z</time>
      </trkpt>
      <trkpt lat="43.64553" lon="1.37986">
        <ele>145</ele>
        <time>2025-04-23T09:29:34Z</time>
      </trkpt>
      <trkpt lat="43.64553" lon="1.37986">
        <ele>145</ele>
        <time>2025-04-23T09:29:35Z</time>
      </trkpt>
      <trkpt lat="43.64555" lon="1.37984">
        <ele>145</ele>
        <time>2025-04-23T09:29:36Z</time>
      </trkpt>
      <trkpt lat="43.64555" lon="1.37984">
        <ele>145</ele>
        <time>2025-04-23T09:29:37Z</time>
      </trkpt>
      <trkpt lat="43.64557" lon="1.37982">
        <ele>145</ele>
        <time>2025-04-23T09:29:38Z</time>
      </trkpt>
      <trkpt lat="43.64557" lon="1.37982">
        <ele>144</ele>
        <time>2025-04-23T09:29:39Z</time>
      </trkpt>
      <trkpt lat="43.64557" lon="1.37982">
        <ele>144</ele>
        <time>2025-04-23T09:29:40Z</time>
      </trkpt>
      <trkpt lat="43.64557" lon="1.37982">
        <ele>145</ele>
        <time>2025-04-23T09:29:41Z</time>
      </trkpt>
      <trkpt lat="43.64557" lon="1.37982">
        <ele>145</ele>
        <time>2025-04-23T09:29:42Z</time>
      </trkpt>
      <trkpt lat="43.64557" lon="1.37982">
        <ele>145</ele>
        <time>2025-04-23T09:29:43Z</time>
      </trkpt>
      <trkpt lat="43.64557" lon="1.37982">
        <ele>145</ele>
        <time>2025-04-23T09:29:44Z</time>
      </trkpt>
      <trkpt lat="43.64557" lon="1.37982">
        <ele>145</ele>
        <time>2025-04-23T09:29:45Z</time>
      </trkpt>
      <trkpt lat="43.64557" lon="1.37982">
        <ele>145</ele>
        <time>2025-04-23T09:29:46Z</time>
      </trkpt>
      <trkpt lat="43.64557" lon="1.37982">
        <ele>145</ele>
        <time>2025-04-23T09:29:47Z</time>
      </trkpt>
      <trkpt lat="43.64557" lon="1.37978">
        <ele>145</ele>
        <time>2025-04-23T09:29:48Z</time>
      </trkpt>
      <trkpt lat="43.64557" lon="1.37978">
        <ele>145</ele>
        <time>2025-04-23T09:29:49Z</time>
      </trkpt>
      <trkpt lat="43.64558" lon="1.37975">
        <ele>144</ele>
        <time>2025-04-23T09:29:50Z</time>
      </trkpt>
      <trkpt lat="43.64558" lon="1.37975">
        <ele>144</ele>
        <time>2025-04-23T09:29:51Z</time>
      </trkpt>
      <trkpt lat="43.6456" lon="1.37973">
        <ele>144</ele>
        <time>2025-04-23T09:29:52Z</time>
      </trkpt>
      <trkpt lat="43.6456" lon="1.37973">
        <ele>144</ele>
        <time>2025-04-23T09:29:53Z</time>
      </trkpt>
      <trkpt lat="43.64562" lon="1.3797">
        <ele>144</ele>
        <time>2025-04-23T09:29:54Z</time>
      </trkpt>
      <trkpt lat="43.64562" lon="1.3797">
        <ele>144</ele>
        <time>2025-04-23T09:29:55Z</time>
      </trkpt>
      <trkpt lat="43.64562" lon="1.37966">
        <ele>145</ele>
        <time>2025-04-23T09:29:56Z</time>
      </trkpt>
      <trkpt lat="43.64562" lon="1.37966">
        <ele>145</ele>
        <time>2025-04-23T09:29:57Z</time>
      </trkpt>
      <trkpt lat="43.64563" lon="1.37962">
        <ele>145</ele>
        <time>2025-04-23T09:29:58Z</time>
      </trkpt>
      <trkpt lat="43.64563" lon="1.37962">
        <ele>145</ele>
        <time>2025-04-23T09:29:59Z</time>
      </trkpt>
      <trkpt lat="43.64564" lon="1.37958">
        <ele>145</ele>
        <time>2025-04-23T09:30:00Z</time>
      </trkpt>
      <trkpt lat="43.64564" lon="1.37958">
        <ele>144</ele>
        <time>2025-04-23T09:30:01Z</time>
      </trkpt>
      <trkpt lat="43.64565" lon="1.37955">
        <ele>144</ele>
        <time>2025-04-23T09:30:02Z</time>
      </trkpt>
      <trkpt lat="43.64565" lon="1.37955">
        <ele>144</ele>
        <time>2025-04-23T09:30:03Z</time>
      </trkpt>
      <trkpt lat="43.64567" lon="1.37952">
        <ele>144</ele>
        <time>2025-04-23T09:30:04Z</time>
      </trkpt>
      <trkpt lat="43.64567" lon="1.37952">
        <ele>144</ele>
        <time>2025-04-23T09:30:05Z</time>
      </trkpt>
      <trkpt lat="43.64567" lon="1.37948">
        <ele>144</ele>
        <time>2025-04-23T09:30:06Z</time>
      </trkpt>
      <trkpt lat="43.64567" lon="1.37948">
        <ele>145</ele>
        <time>2025-04-23T09:30:07Z</time>
      </trkpt>
      <trkpt lat="43.64567" lon="1.37945">
        <ele>145</ele>
        <time>2025-04-23T09:30:08Z</time>
      </trkpt>
      <trkpt lat="43.64567" lon="1.37945">
        <ele>145</ele>
        <time>2025-04-23T09:30:09Z</time>
      </trkpt>
      <trkpt lat="43.64567" lon="1.37942">
        <ele>145</ele>
        <time>2025-04-23T09:30:10Z</time>
      </trkpt>
      <trkpt lat="43.64567" lon="1.37942">
        <ele>145</ele>
        <time>2025-04-23T09:30:11Z</time>
      </trkpt>
      <trkpt lat="43.64567" lon="1.37942">
        <ele>145</ele>
        <time>2025-04-23T09:30:12Z</time>
      </trkpt>
      <trkpt lat="43.64565" lon="1.37939">
        <ele>145</ele>
        <time>2025-04-23T09:30:13Z</time>
      </trkpt>
      <trkpt lat="43.64565" lon="1.37939">
        <ele>145</ele>
        <time>2025-04-23T09:30:14Z</time>
      </trkpt>
      <trkpt lat="43.64565" lon="1.37936">
        <ele>145</ele>
        <time>2025-04-23T09:30:15Z</time>
      </trkpt>
      <trkpt lat="43.64565" lon="1.37936">
        <ele>145</ele>
        <time>2025-04-23T09:30:16Z</time>
      </trkpt>
      <trkpt lat="43.64565" lon="1.37936">
        <ele>145</ele>
        <time>2025-04-23T09:30:17Z</time>
      </trkpt>
      <trkpt lat="43.64563" lon="1.37933">
        <ele>145</ele>
        <time>2025-04-23T09:30:18Z</time>
      </trkpt>
      <trkpt lat="43.64563" lon="1.37933">
        <ele>145</ele>
        <time>2025-04-23T09:30:19Z</time>
      </trkpt>
      <trkpt lat="43.64562" lon="1.37929">
        <ele>145</ele>
        <time>2025-04-23T09:30:20Z</time>
      </trkpt>
      <trkpt lat="43.64562" lon="1.37929">
        <ele>145</ele>
        <time>2025-04-23T09:30:21Z</time>
      </trkpt>
      <trkpt lat="43.6456" lon="1.37926">
        <ele>145</ele>
        <time>2025-04-23T09:30:22Z</time>
      </trkpt>
      <trkpt lat="43.6456" lon="1.37926">
        <ele>145</ele>
        <time>2025-04-23T09:30:23Z</time>
      </trkpt>
      <trkpt lat="43.64559" lon="1.37923">
        <ele>145</ele>
        <time>2025-04-23T09:30:24Z</time>
      </trkpt>
      <trkpt lat="43.64559" lon="1.37923">
        <ele>144</ele>
        <time>2025-04-23T09:30:25Z</time>
      </trkpt>
      <trkpt lat="43.64559" lon="1.37923">
        <ele>144</ele>
        <time>2025-04-23T09:30:26Z</time>
      </trkpt>
      <trkpt lat="43.64559" lon="1.37923">
        <ele>144</ele>
        <time>2025-04-23T09:30:27Z</time>
      </trkpt>
      <trkpt lat="43.64558" lon="1.37922">
        <ele>144</ele>
        <time>2025-04-23T09:30:28Z</time>
      </trkpt>
      <trkpt lat="43.64558" lon="1.37922">
        <ele>144</ele>
        <time>2025-04-23T09:30:29Z</time>
      </trkpt>
      <trkpt lat="43.64556" lon="1.3792">
        <ele>145</ele>
        <time>2025-04-23T09:30:30Z</time>
      </trkpt>
      <trkpt lat="43.64556" lon="1.3792">
        <ele>145</ele>
        <time>2025-04-23T09:30:31Z</time>
      </trkpt>
      <trkpt lat="43.64555" lon="1.37919">
        <ele>145</ele>
        <time>2025-04-23T09:30:32Z</time>
      </trkpt>
      <trkpt lat="43.64555" lon="1.37919">
        <ele>145</ele>
        <time>2025-04-23T09:30:33Z</time>
      </trkpt>
      <trkpt lat="43.64554" lon="1.37916">
        <ele>145</ele>
        <time>2025-04-23T09:30:34Z</time>
      </trkpt>
      <trkpt lat="43.64554" lon="1.37916">
        <ele>145</ele>
        <time>2025-04-23T09:30:35Z</time>
      </trkpt>
      <trkpt lat="43.64554" lon="1.37916">
        <ele>145</ele>
        <time>2025-04-23T09:30:36Z</time>
      </trkpt>
      <trkpt lat="43.64552" lon="1.37913">
        <ele>145</ele>
        <time>2025-04-23T09:30:37Z</time>
      </trkpt>
      <trkpt lat="43.64552" lon="1.37913">
        <ele>145</ele>
        <time>2025-04-23T09:30:38Z</time>
      </trkpt>
      <trkpt lat="43.64551" lon="1.37912">
        <ele>144</ele>
        <time>2025-04-23T09:30:39Z</time>
      </trkpt>
      <trkpt lat="43.64551" lon="1.37912">
        <ele>144</ele>
        <time>2025-04-23T09:30:40Z</time>
      </trkpt>
      <trkpt lat="43.64549" lon="1.3791">
        <ele>144</ele>
        <time>2025-04-23T09:30:41Z</time>
      </trkpt>
      <trkpt lat="43.64549" lon="1.3791">
        <ele>144</ele>
        <time>2025-04-23T09:30:42Z</time>
      </trkpt>
      <trkpt lat="43.64546" lon="1.37909">
        <ele>144</ele>
        <time>2025-04-23T09:30:43Z</time>
      </trkpt>
      <trkpt lat="43.64546" lon="1.37909">
        <ele>144</ele>
        <time>2025-04-23T09:30:44Z</time>
      </trkpt>
      <trkpt lat="43.64543" lon="1.37907">
        <ele>144</ele>
        <time>2025-04-23T09:30:45Z</time>
      </trkpt>
      <trkpt lat="43.64543" lon="1.37907">
        <ele>144</ele>
        <time>2025-04-23T09:30:46Z</time>
      </trkpt>
      <trkpt lat="43.64541" lon="1.37905">
        <ele>144</ele>
        <time>2025-04-23T09:30:47Z</time>
      </trkpt>
      <trkpt lat="43.64539" lon="1.37905">
        <ele>144</ele>
        <time>2025-04-23T09:30:48Z</time>
      </trkpt>
      <trkpt lat="43.64539" lon="1.37905">
        <ele>144</ele>
        <time>2025-04-23T09:30:49Z</time>
      </trkpt>
      <trkpt lat="43.64536" lon="1.37903">
        <ele>144</ele>
        <time>2025-04-23T09:30:50Z</time>
      </trkpt>
      <trkpt lat="43.64536" lon="1.37903">
        <ele>144</ele>
        <time>2025-04-23T09:30:51Z</time>
      </trkpt>
      <trkpt lat="43.64533" lon="1.37902">
        <ele>144</ele>
        <time>2025-04-23T09:30:52Z</time>
      </trkpt>
      <trkpt lat="43.64533" lon="1.37902">
        <ele>144</ele>
        <time>2025-04-23T09:30:53Z</time>
      </trkpt>
      <trkpt lat="43.6453" lon="1.37901">
        <ele>145</ele>
        <time>2025-04-23T09:30:54Z</time>
      </trkpt>
      <trkpt lat="43.64527" lon="1.379">
        <ele>145</ele>
        <time>2025-04-23T09:30:55Z</time>
      </trkpt>
      <trkpt lat="43.64527" lon="1.379">
        <ele>145</ele>
        <time>2025-04-23T09:30:56Z</time>
      </trkpt>
      <trkpt lat="43.64524" lon="1.37898">
        <ele>144</ele>
        <time>2025-04-23T09:30:57Z</time>
      </trkpt>
      <trkpt lat="43.64524" lon="1.37898">
        <ele>144</ele>
        <time>2025-04-23T09:30:58Z</time>
      </trkpt>
      <trkpt lat="43.64522" lon="1.37897">
        <ele>144</ele>
        <time>2025-04-23T09:30:59Z</time>
      </trkpt>
      <trkpt lat="43.64522" lon="1.37897">
        <ele>144</ele>
        <time>2025-04-23T09:31:00Z</time>
      </trkpt>
      <trkpt lat="43.64519" lon="1.37896">
        <ele>144</ele>
        <time>2025-04-23T09:31:01Z</time>
      </trkpt>
      <trkpt lat="43.64519" lon="1.37896">
        <ele>144</ele>
        <time>2025-04-23T09:31:02Z</time>
      </trkpt>
      <trkpt lat="43.64516" lon="1.37894">
        <ele>144</ele>
        <time>2025-04-23T09:31:03Z</time>
      </trkpt>
      <trkpt lat="43.64516" lon="1.37894">
        <ele>144</ele>
        <time>2025-04-23T09:31:04Z</time>
      </trkpt>
      <trkpt lat="43.64513" lon="1.37892">
        <ele>143</ele>
        <time>2025-04-23T09:31:05Z</time>
      </trkpt>
      <trkpt lat="43.64513" lon="1.37892">
        <ele>144</ele>
        <time>2025-04-23T09:31:06Z</time>
      </trkpt>
      <trkpt lat="43.64511" lon="1.37891">
        <ele>144</ele>
        <time>2025-04-23T09:31:07Z</time>
      </trkpt>
      <trkpt lat="43.64511" lon="1.37891">
        <ele>144</ele>
        <time>2025-04-23T09:31:08Z</time>
      </trkpt>
      <trkpt lat="43.64507" lon="1.37888">
        <ele>144</ele>
        <time>2025-04-23T09:31:09Z</time>
      </trkpt>
      <trkpt lat="43.64506" lon="1.37887">
        <ele>144</ele>
        <time>2025-04-23T09:31:10Z</time>
      </trkpt>
      <trkpt lat="43.64504" lon="1.37885">
        <ele>144</ele>
        <time>2025-04-23T09:31:11Z</time>
      </trkpt>
      <trkpt lat="43.64504" lon="1.37885">
        <ele>144</ele>
        <time>2025-04-23T09:31:12Z</time>
      </trkpt>
      <trkpt lat="43.64501" lon="1.37884">
        <ele>144</ele>
        <time>2025-04-23T09:31:13Z</time>
      </trkpt>
      <trkpt lat="43.64501" lon="1.37884">
        <ele>144</ele>
        <time>2025-04-23T09:31:14Z</time>
      </trkpt>
      <trkpt lat="43.64499" lon="1.37883">
        <ele>144</ele>
        <time>2025-04-23T09:31:15Z</time>
      </trkpt>
      <trkpt lat="43.64497" lon="1.37882">
        <ele>144</ele>
        <time>2025-04-23T09:31:16Z</time>
      </trkpt>
      <trkpt lat="43.64495" lon="1.37881">
        <ele>144</ele>
        <time>2025-04-23T09:31:17Z</time>
      </trkpt>
      <trkpt lat="43.64495" lon="1.37881">
        <ele>144</ele>
        <time>2025-04-23T09:31:18Z</time>
      </trkpt>
      <trkpt lat="43.64493" lon="1.37879">
        <ele>144</ele>
        <time>2025-04-23T09:31:19Z</time>
      </trkpt>
      <trkpt lat="43.64493" lon="1.37879">
        <ele>144</ele>
        <time>2025-04-23T09:31:20Z</time>
      </trkpt>
      <trkpt lat="43.64491" lon="1.37878">
        <ele>144</ele>
        <time>2025-04-23T09:31:21Z</time>
      </trkpt>
      <trkpt lat="43.64491" lon="1.37878">
        <ele>144</ele>
        <time>2025-04-23T09:31:22Z</time>
      </trkpt>
      <trkpt lat="43.64488" lon="1.37877">
        <ele>144</ele>
        <time>2025-04-23T09:31:23Z</time>
      </trkpt>
      <trkpt lat="43.64488" lon="1.37877">
        <ele>144</ele>
        <time>2025-04-23T09:31:24Z</time>
      </trkpt>
      <trkpt lat="43.64486" lon="1.37876">
        <ele>144</ele>
        <time>2025-04-23T09:31:25Z</time>
      </trkpt>
      <trkpt lat="43.64486" lon="1.37876">
        <ele>144</ele>
        <time>2025-04-23T09:31:26Z</time>
      </trkpt>
      <trkpt lat="43.64483" lon="1.37876">
        <ele>144</ele>
        <time>2025-04-23T09:31:27Z</time>
      </trkpt>
      <trkpt lat="43.64483" lon="1.37876">
        <ele>145</ele>
        <time>2025-04-23T09:31:28Z</time>
      </trkpt>
      <trkpt lat="43.64481" lon="1.37876">
        <ele>145</ele>
        <time>2025-04-23T09:31:29Z</time>
      </trkpt>
      <trkpt lat="43.64481" lon="1.37876">
        <ele>145</ele>
        <time>2025-04-23T09:31:30Z</time>
      </trkpt>
      <trkpt lat="43.64479" lon="1.37877">
        <ele>144</ele>
        <time>2025-04-23T09:31:31Z</time>
      </trkpt>
      <trkpt lat="43.64479" lon="1.37877">
        <ele>144</ele>
        <time>2025-04-23T09:31:32Z</time>
      </trkpt>
      <trkpt lat="43.64475" lon="1.37879">
        <ele>144</ele>
        <time>2025-04-23T09:31:33Z</time>
      </trkpt>
      <trkpt lat="43.64474" lon="1.37881">
        <ele>144</ele>
        <time>2025-04-23T09:31:34Z</time>
      </trkpt>
      <trkpt lat="43.64474" lon="1.37881">
        <ele>144</ele>
        <time>2025-04-23T09:31:35Z</time>
      </trkpt>
      <trkpt lat="43.64471" lon="1.37884">
        <ele>144</ele>
        <time>2025-04-23T09:31:36Z</time>
      </trkpt>
      <trkpt lat="43.6447" lon="1.37885">
        <ele>144</ele>
        <time>2025-04-23T09:31:37Z</time>
      </trkpt>
      <trkpt lat="43.6447" lon="1.37885">
        <ele>144</ele>
        <time>2025-04-23T09:31:38Z</time>
      </trkpt>
      <trkpt lat="43.64467" lon="1.37888">
        <ele>144</ele>
        <time>2025-04-23T09:31:39Z</time>
      </trkpt>
      <trkpt lat="43.64467" lon="1.37888">
        <ele>144</ele>
        <time>2025-04-23T09:31:40Z</time>
      </trkpt>
      <trkpt lat="43.64466" lon="1.3789">
        <ele>144</ele>
        <time>2025-04-23T09:31:41Z</time>
      </trkpt>
      <trkpt lat="43.64466" lon="1.3789">
        <ele>144</ele>
        <time>2025-04-23T09:31:42Z</time>
      </trkpt>
      <trkpt lat="43.64465" lon="1.37893">
        <ele>145</ele>
        <time>2025-04-23T09:31:43Z</time>
      </trkpt>
      <trkpt lat="43.64465" lon="1.37893">
        <ele>145</ele>
        <time>2025-04-23T09:31:44Z</time>
      </trkpt>
      <trkpt lat="43.64464" lon="1.37897">
        <ele>145</ele>
        <time>2025-04-23T09:31:45Z</time>
      </trkpt>
      <trkpt lat="43.64464" lon="1.37897">
        <ele>145</ele>
        <time>2025-04-23T09:31:46Z</time>
      </trkpt>
      <trkpt lat="43.64463" lon="1.379">
        <ele>145</ele>
        <time>2025-04-23T09:31:47Z</time>
      </trkpt>
      <trkpt lat="43.64463" lon="1.379">
        <ele>145</ele>
        <time>2025-04-23T09:31:48Z</time>
      </trkpt>
      <trkpt lat="43.64462" lon="1.37904">
        <ele>145</ele>
        <time>2025-04-23T09:31:49Z</time>
      </trkpt>
      <trkpt lat="43.64462" lon="1.37904">
        <ele>145</ele>
        <time>2025-04-23T09:31:50Z</time>
      </trkpt>
      <trkpt lat="43.64461" lon="1.37908">
        <ele>145</ele>
        <time>2025-04-23T09:31:51Z</time>
      </trkpt>
      <trkpt lat="43.64461" lon="1.37908">
        <ele>144</ele>
        <time>2025-04-23T09:31:52Z</time>
      </trkpt>
      <trkpt lat="43.64461" lon="1.37913">
        <ele>145</ele>
        <time>2025-04-23T09:31:53Z</time>
      </trkpt>
      <trkpt lat="43.64461" lon="1.37913">
        <ele>145</ele>
        <time>2025-04-23T09:31:54Z</time>
      </trkpt>
      <trkpt lat="43.6446" lon="1.37916">
        <ele>145</ele>
        <time>2025-04-23T09:31:55Z</time>
      </trkpt>
      <trkpt lat="43.6446" lon="1.37916">
        <ele>145</ele>
        <time>2025-04-23T09:31:56Z</time>
      </trkpt>
      <trkpt lat="43.6446" lon="1.3792">
        <ele>145</ele>
        <time>2025-04-23T09:31:57Z</time>
      </trkpt>
      <trkpt lat="43.64461" lon="1.37923">
        <ele>145</ele>
        <time>2025-04-23T09:31:58Z</time>
      </trkpt>
      <trkpt lat="43.64461" lon="1.37923">
        <ele>144</ele>
        <time>2025-04-23T09:31:59Z</time>
      </trkpt>
      <trkpt lat="43.64461" lon="1.37923">
        <ele>144</ele>
        <time>2025-04-23T09:32:00Z</time>
      </trkpt>
      <trkpt lat="43.64461" lon="1.37927">
        <ele>143</ele>
        <time>2025-04-23T09:32:01Z</time>
      </trkpt>
      <trkpt lat="43.64461" lon="1.37927">
        <ele>143</ele>
        <time>2025-04-23T09:32:02Z</time>
      </trkpt>
      <trkpt lat="43.64462" lon="1.37931">
        <ele>143</ele>
        <time>2025-04-23T09:32:03Z</time>
      </trkpt>
      <trkpt lat="43.64462" lon="1.37931">
        <ele>143</ele>
        <time>2025-04-23T09:32:04Z</time>
      </trkpt>
      <trkpt lat="43.64464" lon="1.37935">
        <ele>144</ele>
        <time>2025-04-23T09:32:05Z</time>
      </trkpt>
      <trkpt lat="43.64464" lon="1.37935">
        <ele>144</ele>
        <time>2025-04-23T09:32:06Z</time>
      </trkpt>
      <trkpt lat="43.64465" lon="1.37938">
        <ele>144</ele>
        <time>2025-04-23T09:32:07Z</time>
      </trkpt>
      <trkpt lat="43.64465" lon="1.37938">
        <ele>144</ele>
        <time>2025-04-23T09:32:08Z</time>
      </trkpt>
      <trkpt lat="43.64467" lon="1.37941">
        <ele>144</ele>
        <time>2025-04-23T09:32:09Z</time>
      </trkpt>
      <trkpt lat="43.64467" lon="1.37941">
        <ele>144</ele>
        <time>2025-04-23T09:32:10Z</time>
      </trkpt>
      <trkpt lat="43.64468" lon="1.37943">
        <ele>144</ele>
        <time>2025-04-23T09:32:11Z</time>
      </trkpt>
      <trkpt lat="43.64468" lon="1.37943">
        <ele>144</ele>
        <time>2025-04-23T09:32:12Z</time>
      </trkpt>
      <trkpt lat="43.6447" lon="1.37945">
        <ele>144</ele>
        <time>2025-04-23T09:32:13Z</time>
      </trkpt>
      <trkpt lat="43.6447" lon="1.37945">
        <ele>145</ele>
        <time>2025-04-23T09:32:14Z</time>
      </trkpt>
      <trkpt lat="43.64472" lon="1.37947">
        <ele>145</ele>
        <time>2025-04-23T09:32:15Z</time>
      </trkpt>
      <trkpt lat="43.64472" lon="1.37947">
        <ele>145</ele>
        <time>2025-04-23T09:32:16Z</time>
      </trkpt>
      <trkpt lat="43.64472" lon="1.37947">
        <ele>145</ele>
        <time>2025-04-23T09:32:17Z</time>
      </trkpt>
      <trkpt lat="43.64474" lon="1.37949">
        <ele>144</ele>
        <time>2025-04-23T09:32:18Z</time>
      </trkpt>
      <trkpt lat="43.64474" lon="1.37949">
        <ele>144</ele>
        <time>2025-04-23T09:32:19Z</time>
      </trkpt>
      <trkpt lat="43.64477" lon="1.3795">
        <ele>144</ele>
        <time>2025-04-23T09:32:20Z</time>
      </trkpt>
      <trkpt lat="43.64477" lon="1.3795">
        <ele>145</ele>
        <time>2025-04-23T09:32:21Z</time>
      </trkpt>
      <trkpt lat="43.6448" lon="1.37952">
        <ele>145</ele>
        <time>2025-04-23T09:32:22Z</time>
      </trkpt>
      <trkpt lat="43.6448" lon="1.37952">
        <ele>145</ele>
        <time>2025-04-23T09:32:23Z</time>
      </trkpt>
      <trkpt lat="43.64483" lon="1.37953">
        <ele>145</ele>
        <time>2025-04-23T09:32:24Z</time>
      </trkpt>
      <trkpt lat="43.64483" lon="1.37953">
        <ele>145</ele>
        <time>2025-04-23T09:32:25Z</time>
      </trkpt>
      <trkpt lat="43.64486" lon="1.37955">
        <ele>145</ele>
        <time>2025-04-23T09:32:26Z</time>
      </trkpt>
      <trkpt lat="43.64488" lon="1.37957">
        <ele>145</ele>
        <time>2025-04-23T09:32:27Z</time>
      </trkpt>
      <trkpt lat="43.6449" lon="1.37959">
        <ele>145</ele>
        <time>2025-04-23T09:32:28Z</time>
      </trkpt>
      <trkpt lat="43.64491" lon="1.37961">
        <ele>144</ele>
        <time>2025-04-23T09:32:29Z</time>
      </trkpt>
      <trkpt lat="43.64493" lon="1.37962">
        <ele>144</ele>
        <time>2025-04-23T09:32:30Z</time>
      </trkpt>
      <trkpt lat="43.64493" lon="1.37962">
        <ele>144</ele>
        <time>2025-04-23T09:32:31Z</time>
      </trkpt>
      <trkpt lat="43.64495" lon="1.37964">
        <ele>144</ele>
        <time>2025-04-23T09:32:32Z</time>
      </trkpt>
      <trkpt lat="43.64497" lon="1.37966">
        <ele>145</ele>
        <time>2025-04-23T09:32:33Z</time>
      </trkpt>
      <trkpt lat="43.64499" lon="1.37967">
        <ele>145</ele>
        <time>2025-04-23T09:32:34Z</time>
      </trkpt>
      <trkpt lat="43.64499" lon="1.37967">
        <ele>145</ele>
        <time>2025-04-23T09:32:35Z</time>
      </trkpt>
      <trkpt lat="43.64501" lon="1.37969">
        <ele>145</ele>
        <time>2025-04-23T09:32:36Z</time>
      </trkpt>
      <trkpt lat="43.64501" lon="1.37969">
        <ele>145</ele>
        <time>2025-04-23T09:32:37Z</time>
      </trkpt>
      <trkpt lat="43.64504" lon="1.3797">
        <ele>145</ele>
        <time>2025-04-23T09:32:38Z</time>
      </trkpt>
      <trkpt lat="43.64504" lon="1.3797">
        <ele>145</ele>
        <time>2025-04-23T09:32:39Z</time>
      </trkpt>
      <trkpt lat="43.64506" lon="1.3797">
        <ele>145</ele>
        <time>2025-04-23T09:32:40Z</time>
      </trkpt>
      <trkpt lat="43.64506" lon="1.3797">
        <ele>145</ele>
        <time>2025-04-23T09:32:41Z</time>
      </trkpt>
      <trkpt lat="43.64508" lon="1.37971">
        <ele>145</ele>
        <time>2025-04-23T09:32:42Z</time>
      </trkpt>
      <trkpt lat="43.64508" lon="1.37971">
        <ele>145</ele>
        <time>2025-04-23T09:32:43Z</time>
      </trkpt>
      <trkpt lat="43.64511" lon="1.37972">
        <ele>145</ele>
        <time>2025-04-23T09:32:44Z</time>
      </trkpt>
      <trkpt lat="43.64511" lon="1.37972">
        <ele>145</ele>
        <time>2025-04-23T09:32:45Z</time>
      </trkpt>
      <trkpt lat="43.64513" lon="1.37974">
        <ele>145</ele>
        <time>2025-04-23T09:32:46Z</time>
      </trkpt>
      <trkpt lat="43.64515" lon="1.37975">
        <ele>145</ele>
        <time>2025-04-23T09:32:47Z</time>
      </trkpt>
      <trkpt lat="43.64515" lon="1.37975">
        <ele>145</ele>
        <time>2025-04-23T09:32:48Z</time>
      </trkpt>
      <trkpt lat="43.64518" lon="1.37977">
        <ele>144</ele>
        <time>2025-04-23T09:32:49Z</time>
      </trkpt>
      <trkpt lat="43.64518" lon="1.37977">
        <ele>144</ele>
        <time>2025-04-23T09:32:50Z</time>
      </trkpt>
      <trkpt lat="43.6452" lon="1.37979">
        <ele>144</ele>
        <time>2025-04-23T09:32:51Z</time>
      </trkpt>
      <trkpt lat="43.6452" lon="1.37979">
        <ele>145</ele>
        <time>2025-04-23T09:32:52Z</time>
      </trkpt>
      <trkpt lat="43.64523" lon="1.37982">
        <ele>145</ele>
        <time>2025-04-23T09:32:53Z</time>
      </trkpt>
      <trkpt lat="43.64525" lon="1.37983">
        <ele>145</ele>
        <time>2025-04-23T09:32:54Z</time>
      </trkpt>
      <trkpt lat="43.64525" lon="1.37983">
        <ele>145</ele>
        <time>2025-04-23T09:32:55Z</time>
      </trkpt>
      <trkpt lat="43.64528" lon="1.37985">
        <ele>145</ele>
        <time>2025-04-23T09:32:56Z</time>
      </trkpt>
      <trkpt lat="43.64528" lon="1.37985">
        <ele>145</ele>
        <time>2025-04-23T09:32:57Z</time>
      </trkpt>
      <trkpt lat="43.6453" lon="1.37985">
        <ele>145</ele>
        <time>2025-04-23T09:32:58Z</time>
      </trkpt>
      <trkpt lat="43.6453" lon="1.37985">
        <ele>145</ele>
        <time>2025-04-23T09:32:59Z</time>
      </trkpt>
      <trkpt lat="43.64533" lon="1.37985">
        <ele>145</ele>
        <time>2025-04-23T09:33:00Z</time>
      </trkpt>
      <trkpt lat="43.64533" lon="1.37985">
        <ele>145</ele>
        <time>2025-04-23T09:33:01Z</time>
      </trkpt>
      <trkpt lat="43.64536" lon="1.37985">
        <ele>145</ele>
        <time>2025-04-23T09:33:02Z</time>
      </trkpt>
      <trkpt lat="43.64536" lon="1.37985">
        <ele>144</ele>
        <time>2025-04-23T09:33:03Z</time>
      </trkpt>
      <trkpt lat="43.64539" lon="1.37985">
        <ele>144</ele>
        <time>2025-04-23T09:33:04Z</time>
      </trkpt>
      <trkpt lat="43.64539" lon="1.37985">
        <ele>144</ele>
        <time>2025-04-23T09:33:05Z</time>
      </trkpt>
      <trkpt lat="43.64542" lon="1.37985">
        <ele>144</ele>
        <time>2025-04-23T09:33:06Z</time>
      </trkpt>
      <trkpt lat="43.64542" lon="1.37985">
        <ele>144</ele>
        <time>2025-04-23T09:33:07Z</time>
      </trkpt>
      <trkpt lat="43.64544" lon="1.37984">
        <ele>144</ele>
        <time>2025-04-23T09:33:08Z</time>
      </trkpt>
      <trkpt lat="43.64544" lon="1.37984">
        <ele>144</ele>
        <time>2025-04-23T09:33:09Z</time>
      </trkpt>
      <trkpt lat="43.64546" lon="1.37983">
        <ele>144</ele>
        <time>2025-04-23T09:33:10Z</time>
      </trkpt>
      <trkpt lat="43.64546" lon="1.37983">
        <ele>144</ele>
        <time>2025-04-23T09:33:11Z</time>
      </trkpt>
      <trkpt lat="43.64548" lon="1.37982">
        <ele>144</ele>
        <time>2025-04-23T09:33:12Z</time>
      </trkpt>
      <trkpt lat="43.64548" lon="1.37982">
        <ele>144</ele>
        <time>2025-04-23T09:33:13Z</time>
      </trkpt>
      <trkpt lat="43.6455" lon="1.37981">
        <ele>144</ele>
        <time>2025-04-23T09:33:14Z</time>
      </trkpt>
      <trkpt lat="43.6455" lon="1.37981">
        <ele>144</ele>
        <time>2025-04-23T09:33:15Z</time>
      </trkpt>
      <trkpt lat="43.6455" lon="1.37981">
        <ele>144</ele>
        <time>2025-04-23T09:33:16Z</time>
      </trkpt>
      <trkpt lat="43.64552" lon="1.37979">
        <ele>144</ele>
        <time>2025-04-23T09:33:17Z</time>
      </trkpt>
      <trkpt lat="43.64552" lon="1.37979">
        <ele>144</ele>
        <time>2025-04-23T09:33:18Z</time>
      </trkpt>
      <trkpt lat="43.64552" lon="1.37979">
        <ele>144</ele>
        <time>2025-04-23T09:33:19Z</time>
      </trkpt>
      <trkpt lat="43.64554" lon="1.37976">
        <ele>144</ele>
        <time>2025-04-23T09:33:20Z</time>
      </trkpt>
      <trkpt lat="43.64554" lon="1.37976">
        <ele>145</ele>
        <time>2025-04-23T09:33:21Z</time>
      </trkpt>
      <trkpt lat="43.64556" lon="1.37975">
        <ele>145</ele>
        <time>2025-04-23T09:33:22Z</time>
      </trkpt>
      <trkpt lat="43.64556" lon="1.37975">
        <ele>145</ele>
        <time>2025-04-23T09:33:23Z</time>
      </trkpt>
      <trkpt lat="43.64556" lon="1.37975">
        <ele>144</ele>
        <time>2025-04-23T09:33:24Z</time>
      </trkpt>
      <trkpt lat="43.64558" lon="1.37972">
        <ele>145</ele>
        <time>2025-04-23T09:33:25Z</time>
      </trkpt>
      <trkpt lat="43.64558" lon="1.37972">
        <ele>145</ele>
        <time>2025-04-23T09:33:26Z</time>
      </trkpt>
      <trkpt lat="43.64558" lon="1.37972">
        <ele>145</ele>
        <time>2025-04-23T09:33:27Z</time>
      </trkpt>
      <trkpt lat="43.64559" lon="1.37969">
        <ele>145</ele>
        <time>2025-04-23T09:33:28Z</time>
      </trkpt>
      <trkpt lat="43.64559" lon="1.37969">
        <ele>145</ele>
        <time>2025-04-23T09:33:29Z</time>
      </trkpt>
      <trkpt lat="43.6456" lon="1.37967">
        <ele>145</ele>
        <time>2025-04-23T09:33:30Z</time>
      </trkpt>
      <trkpt lat="43.6456" lon="1.37967">
        <ele>145</ele>
        <time>2025-04-23T09:33:31Z</time>
      </trkpt>
      <trkpt lat="43.64561" lon="1.37964">
        <ele>145</ele>
        <time>2025-04-23T09:33:32Z</time>
      </trkpt>
      <trkpt lat="43.64561" lon="1.37964">
        <ele>145</ele>
        <time>2025-04-23T09:33:33Z</time>
      </trkpt>
      <trkpt lat="43.64563" lon="1.37961">
        <ele>145</ele>
        <time>2025-04-23T09:33:34Z</time>
      </trkpt>
      <trkpt lat="43.64563" lon="1.37961">
        <ele>145</ele>
        <time>2025-04-23T09:33:35Z</time>
      </trkpt>
      <trkpt lat="43.64563" lon="1.37959">
        <ele>145</ele>
        <time>2025-04-23T09:33:36Z</time>
      </trkpt>
      <trkpt lat="43.64563" lon="1.37959">
        <ele>145</ele>
        <time>2025-04-23T09:33:37Z</time>
      </trkpt>
      <trkpt lat="43.64564" lon="1.37957">
        <ele>145</ele>
        <time>2025-04-23T09:33:38Z</time>
      </trkpt>
      <trkpt lat="43.64564" lon="1.37957">
        <ele>145</ele>
        <time>2025-04-23T09:33:39Z</time>
      </trkpt>
      <trkpt lat="43.64564" lon="1.37957">
        <ele>145</ele>
        <time>2025-04-23T09:33:40Z</time>
      </trkpt>
      <trkpt lat="43.64565" lon="1.37953">
        <ele>145</ele>
        <time>2025-04-23T09:33:41Z</time>
      </trkpt>
      <trkpt lat="43.64565" lon="1.37953">
        <ele>145</ele>
        <time>2025-04-23T09:33:42Z</time>
      </trkpt>
      <trkpt lat="43.64565" lon="1.37953">
        <ele>145</ele>
        <time>2025-04-23T09:33:43Z</time>
      </trkpt>
      <trkpt lat="43.64565" lon="1.37949">
        <ele>145</ele>
        <time>2025-04-23T09:33:44Z</time>
      </trkpt>
      <trkpt lat="43.64565" lon="1.37949">
        <ele>145</ele>
        <time>2025-04-23T09:33:45Z</time>
      </trkpt>
      <trkpt lat="43.64565" lon="1.37949">
        <ele>145</ele>
        <time>2025-04-23T09:33:46Z</time>
      </trkpt>
      <trkpt lat="43.64565" lon="1.37946">
        <ele>145</ele>
        <time>2025-04-23T09:33:47Z</time>
      </trkpt>
      <trkpt lat="43.64565" lon="1.37946">
        <ele>144</ele>
        <time>2025-04-23T09:33:48Z</time>
      </trkpt>
      <trkpt lat="43.64565" lon="1.37946">
        <ele>144</ele>
        <time>2025-04-23T09:33:49Z</time>
      </trkpt>
      <trkpt lat="43.64565" lon="1.37946">
        <ele>144</ele>
        <time>2025-04-23T09:33:50Z</time>
      </trkpt>
      <trkpt lat="43.64565" lon="1.37946">
        <ele>144</ele>
        <time>2025-04-23T09:33:51Z</time>
      </trkpt>
      <trkpt lat="43.64565" lon="1.37946">
        <ele>144</ele>
        <time>2025-04-23T09:33:52Z</time>
      </trkpt>
      <trkpt lat="43.64565" lon="1.37946">
        <ele>145</ele>
        <time>2025-04-23T09:33:53Z</time>
      </trkpt>
      <trkpt lat="43.64565" lon="1.37946">
        <ele>145</ele>
        <time>2025-04-23T09:33:54Z</time>
      </trkpt>
      <trkpt lat="43.64564" lon="1.37944">
        <ele>145</ele>
        <time>2025-04-23T09:33:55Z</time>
      </trkpt>
      <trkpt lat="43.64564" lon="1.37944">
        <ele>145</ele>
        <time>2025-04-23T09:33:56Z</time>
      </trkpt>
      <trkpt lat="43.64564" lon="1.37944">
        <ele>145</ele>
        <time>2025-04-23T09:33:57Z</time>
      </trkpt>
      <trkpt lat="43.64564" lon="1.37944">
        <ele>145</ele>
        <time>2025-04-23T09:33:58Z</time>
      </trkpt>
      <trkpt lat="43.64563" lon="1.37941">
        <ele>145</ele>
        <time>2025-04-23T09:33:59Z</time>
      </trkpt>
      <trkpt lat="43.64563" lon="1.37941">
        <ele>145</ele>
        <time>2025-04-23T09:34:00Z</time>
      </trkpt>
      <trkpt lat="43.64563" lon="1.37938">
        <ele>145</ele>
        <time>2025-04-23T09:34:01Z</time>
      </trkpt>
      <trkpt lat="43.64563" lon="1.37938">
        <ele>145</ele>
        <time>2025-04-23T09:34:02Z</time>
      </trkpt>
      <trkpt lat="43.64563" lon="1.37936">
        <ele>145</ele>
        <time>2025-04-23T09:34:03Z</time>
      </trkpt>
      <trkpt lat="43.64563" lon="1.37936">
        <ele>145</ele>
        <time>2025-04-23T09:34:04Z</time>
      </trkpt>
      <trkpt lat="43.64563" lon="1.37933">
        <ele>145</ele>
        <time>2025-04-23T09:34:05Z</time>
      </trkpt>
      <trkpt lat="43.64563" lon="1.37933">
        <ele>145</ele>
        <time>2025-04-23T09:34:06Z</time>
      </trkpt>
      <trkpt lat="43.64563" lon="1.37933">
        <ele>145</ele>
        <time>2025-04-23T09:34:07Z</time>
      </trkpt>
      <trkpt lat="43.64562" lon="1.3793">
        <ele>145</ele>
        <time>2025-04-23T09:34:08Z</time>
      </trkpt>
      <trkpt lat="43.64562" lon="1.3793">
        <ele>144</ele>
        <time>2025-04-23T09:34:09Z</time>
      </trkpt>
      <trkpt lat="43.64562" lon="1.3793">
        <ele>144</ele>
        <time>2025-04-23T09:34:10Z</time>
      </trkpt>
      <trkpt lat="43.64561" lon="1.37928">
        <ele>144</ele>
        <time>2025-04-23T09:34:11Z</time>
      </trkpt>
      <trkpt lat="43.64561" lon="1.37928">
        <ele>144</ele>
        <time>2025-04-23T09:34:12Z</time>
      </trkpt>
      <trkpt lat="43.6456" lon="1.37925">
        <ele>144</ele>
        <time>2025-04-23T09:34:13Z</time>
      </trkpt>
      <trkpt lat="43.6456" lon="1.37925">
        <ele>144</ele>
        <time>2025-04-23T09:34:14Z</time>
      </trkpt>
      <trkpt lat="43.64558" lon="1.37923">
        <ele>144</ele>
        <time>2025-04-23T09:34:15Z</time>
      </trkpt>
      <trkpt lat="43.64558" lon="1.37923">
        <ele>145</ele>
        <time>2025-04-23T09:34:16Z</time>
      </trkpt>
      <trkpt lat="43.64557" lon="1.37921">
        <ele>145</ele>
        <time>2025-04-23T09:34:17Z</time>
      </trkpt>
      <trkpt lat="43.64557" lon="1.37921">
        <ele>144</ele>
        <time>2025-04-23T09:34:18Z</time>
      </trkpt>
      <trkpt lat="43.64555" lon="1.37919">
        <ele>144</ele>
        <time>2025-04-23T09:34:19Z</time>
      </trkpt>
      <trkpt lat="43.64555" lon="1.37919">
        <ele>144</ele>
        <time>2025-04-23T09:34:20Z</time>
      </trkpt>
      <trkpt lat="43.64553" lon="1.37917">
        <ele>144</ele>
        <time>2025-04-23T09:34:21Z</time>
      </trkpt>
      <trkpt lat="43.64553" lon="1.37917">
        <ele>144</ele>
        <time>2025-04-23T09:34:22Z</time>
      </trkpt>
      <trkpt lat="43.64551" lon="1.37915">
        <ele>144</ele>
        <time>2025-04-23T09:34:23Z</time>
      </trkpt>
      <trkpt lat="43.64551" lon="1.37915">
        <ele>144</ele>
        <time>2025-04-23T09:34:24Z</time>
      </trkpt>
      <trkpt lat="43.64549" lon="1.37913">
        <ele>144</ele>
        <time>2025-04-23T09:34:25Z</time>
      </trkpt>
      <trkpt lat="43.64549" lon="1.37913">
        <ele>144</ele>
        <time>2025-04-23T09:34:26Z</time>
      </trkpt>
      <trkpt lat="43.64549" lon="1.37913">
        <ele>144</ele>
        <time>2025-04-23T09:34:27Z</time>
      </trkpt>
      <trkpt lat="43.64547" lon="1.37911">
        <ele>144</ele>
        <time>2025-04-23T09:34:28Z</time>
      </trkpt>
      <trkpt lat="43.64547" lon="1.37911">
        <ele>144</ele>
        <time>2025-04-23T09:34:29Z</time>
      </trkpt>
      <trkpt lat="43.64545" lon="1.3791">
        <ele>144</ele>
        <time>2025-04-23T09:34:30Z</time>
      </trkpt>
      <trkpt lat="43.64545" lon="1.3791">
        <ele>144</ele>
        <time>2025-04-23T09:34:31Z</time>
      </trkpt>
      <trkpt lat="43.64543" lon="1.37908">
        <ele>144</ele>
        <time>2025-04-23T09:34:32Z</time>
      </trkpt>
      <trkpt lat="43.64543" lon="1.37908">
        <ele>144</ele>
        <time>2025-04-23T09:34:33Z</time>
      </trkpt>
      <trkpt lat="43.64541" lon="1.37907">
        <ele>144</ele>
        <time>2025-04-23T09:34:34Z</time>
      </trkpt>
      <trkpt lat="43.64541" lon="1.37907">
        <ele>144</ele>
        <time>2025-04-23T09:34:35Z</time>
      </trkpt>
      <trkpt lat="43.64538" lon="1.37905">
        <ele>144</ele>
        <time>2025-04-23T09:34:36Z</time>
      </trkpt>
      <trkpt lat="43.64538" lon="1.37905">
        <ele>144</ele>
        <time>2025-04-23T09:34:37Z</time>
      </trkpt>
      <trkpt lat="43.64535" lon="1.37903">
        <ele>145</ele>
        <time>2025-04-23T09:34:38Z</time>
      </trkpt>
      <trkpt lat="43.64534" lon="1.37902">
        <ele>145</ele>
        <time>2025-04-23T09:34:39Z</time>
      </trkpt>
      <trkpt lat="43.64532" lon="1.37901">
        <ele>145</ele>
        <time>2025-04-23T09:34:40Z</time>
      </trkpt>
      <trkpt lat="43.6453" lon="1.37899">
        <ele>144</ele>
        <time>2025-04-23T09:34:41Z</time>
      </trkpt>
      <trkpt lat="43.64528" lon="1.37898">
        <ele>144</ele>
        <time>2025-04-23T09:34:42Z</time>
      </trkpt>
      <trkpt lat="43.64526" lon="1.37897">
        <ele>144</ele>
        <time>2025-04-23T09:34:43Z</time>
      </trkpt>
      <trkpt lat="43.64524" lon="1.37896">
        <ele>145</ele>
        <time>2025-04-23T09:34:44Z</time>
      </trkpt>
      <trkpt lat="43.64522" lon="1.37895">
        <ele>145</ele>
        <time>2025-04-23T09:34:45Z</time>
      </trkpt>
      <trkpt lat="43.64522" lon="1.37895">
        <ele>145</ele>
        <time>2025-04-23T09:34:46Z</time>
      </trkpt>
      <trkpt lat="43.64519" lon="1.37893">
        <ele>145</ele>
        <time>2025-04-23T09:34:47Z</time>
      </trkpt>
      <trkpt lat="43.64517" lon="1.37892">
        <ele>145</ele>
        <time>2025-04-23T09:34:48Z</time>
      </trkpt>
      <trkpt lat="43.64517" lon="1.37892">
        <ele>144</ele>
        <time>2025-04-23T09:34:49Z</time>
      </trkpt>
      <trkpt lat="43.64515" lon="1.3789">
        <ele>144</ele>
        <time>2025-04-23T09:34:50Z</time>
      </trkpt>
      <trkpt lat="43.64515" lon="1.3789">
        <ele>144</ele>
        <time>2025-04-23T09:34:51Z</time>
      </trkpt>
      <trkpt lat="43.64513" lon="1.37889">
        <ele>144</ele>
        <time>2025-04-23T09:34:52Z</time>
      </trkpt>
      <trkpt lat="43.64513" lon="1.37889">
        <ele>144</ele>
        <time>2025-04-23T09:34:53Z</time>
      </trkpt>
      <trkpt lat="43.64511" lon="1.37887">
        <ele>145</ele>
        <time>2025-04-23T09:34:54Z</time>
      </trkpt>
      <trkpt lat="43.64511" lon="1.37887">
        <ele>145</ele>
        <time>2025-04-23T09:34:55Z</time>
      </trkpt>
      <trkpt lat="43.64509" lon="1.37885">
        <ele>145</ele>
        <time>2025-04-23T09:34:56Z</time>
      </trkpt>
      <trkpt lat="43.64509" lon="1.37885">
        <ele>144</ele>
        <time>2025-04-23T09:34:57Z</time>
      </trkpt>
      <trkpt lat="43.64507" lon="1.37884">
        <ele>144</ele>
        <time>2025-04-23T09:34:58Z</time>
      </trkpt>
      <trkpt lat="43.64507" lon="1.37884">
        <ele>145</ele>
        <time>2025-04-23T09:34:59Z</time>
      </trkpt>
      <trkpt lat="43.64505" lon="1.37882">
        <ele>145</ele>
        <time>2025-04-23T09:35:00Z</time>
      </trkpt>
      <trkpt lat="43.64505" lon="1.37882">
        <ele>145</ele>
        <time>2025-04-23T09:35:01Z</time>
      </trkpt>
      <trkpt lat="43.64503" lon="1.37881">
        <ele>145</ele>
        <time>2025-04-23T09:35:02Z</time>
      </trkpt>
      <trkpt lat="43.64503" lon="1.37881">
        <ele>145</ele>
        <time>2025-04-23T09:35:03Z</time>
      </trkpt>
      <trkpt lat="43.64501" lon="1.37879">
        <ele>145</ele>
        <time>2025-04-23T09:35:04Z</time>
      </trkpt>
      <trkpt lat="43.64499" lon="1.37878">
        <ele>145</ele>
        <time>2025-04-23T09:35:05Z</time>
      </trkpt>
      <trkpt lat="43.64497" lon="1.37877">
        <ele>145</ele>
        <time>2025-04-23T09:35:06Z</time>
      </trkpt>
      <trkpt lat="43.64497" lon="1.37877">
        <ele>145</ele>
        <time>2025-04-23T09:35:07Z</time>
      </trkpt>
      <trkpt lat="43.64494" lon="1.37877">
        <ele>145</ele>
        <time>2025-04-23T09:35:08Z</time>
      </trkpt>
      <trkpt lat="43.64494" lon="1.37877">
        <ele>145</ele>
        <time>2025-04-23T09:35:09Z</time>
      </trkpt>
      <trkpt lat="43.64491" lon="1.37876">
        <ele>145</ele>
        <time>2025-04-23T09:35:10Z</time>
      </trkpt>
      <trkpt lat="43.64491" lon="1.37876">
        <ele>145</ele>
        <time>2025-04-23T09:35:11Z</time>
      </trkpt>
      <trkpt lat="43.64488" lon="1.37875">
        <ele>145</ele>
        <time>2025-04-23T09:35:12Z</time>
      </trkpt>
      <trkpt lat="43.64486" lon="1.37875">
        <ele>144</ele>
        <time>2025-04-23T09:35:13Z</time>
      </trkpt>
      <trkpt lat="43.64484" lon="1.37875">
        <ele>144</ele>
        <time>2025-04-23T09:35:14Z</time>
      </trkpt>
      <trkpt lat="43.64484" lon="1.37875">
        <ele>145</ele>
        <time>2025-04-23T09:35:15Z</time>
      </trkpt>
      <trkpt lat="43.64481" lon="1.37876">
        <ele>145</ele>
        <time>2025-04-23T09:35:16Z</time>
      </trkpt>
      <trkpt lat="43.64481" lon="1.37876">
        <ele>145</ele>
        <time>2025-04-23T09:35:17Z</time>
      </trkpt>
      <trkpt lat="43.64478" lon="1.37877">
        <ele>145</ele>
        <time>2025-04-23T09:35:18Z</time>
      </trkpt>
      <trkpt lat="43.64478" lon="1.37877">
        <ele>145</ele>
        <time>2025-04-23T09:35:19Z</time>
      </trkpt>
      <trkpt lat="43.64476" lon="1.37878">
        <ele>145</ele>
        <time>2025-04-23T09:35:20Z</time>
      </trkpt>
      <trkpt lat="43.64476" lon="1.37878">
        <ele>145</ele>
        <time>2025-04-23T09:35:21Z</time>
      </trkpt>
      <trkpt lat="43.64474" lon="1.37879">
        <ele>145</ele>
        <time>2025-04-23T09:35:22Z</time>
      </trkpt>
      <trkpt lat="43.64474" lon="1.37879">
        <ele>145</ele>
        <time>2025-04-23T09:35:23Z</time>
      </trkpt>
      <trkpt lat="43.64472" lon="1.37881">
        <ele>145</ele>
        <time>2025-04-23T09:35:24Z</time>
      </trkpt>
      <trkpt lat="43.64472" lon="1.37881">
        <ele>145</ele>
        <time>2025-04-23T09:35:25Z</time>
      </trkpt>
      <trkpt lat="43.6447" lon="1.37883">
        <ele>145</ele>
        <time>2025-04-23T09:35:26Z</time>
      </trkpt>
      <trkpt lat="43.6447" lon="1.37883">
        <ele>145</ele>
        <time>2025-04-23T09:35:27Z</time>
      </trkpt>
      <trkpt lat="43.64469" lon="1.37885">
        <ele>145</ele>
        <time>2025-04-23T09:35:28Z</time>
      </trkpt>
      <trkpt lat="43.64469" lon="1.37885">
        <ele>145</ele>
        <time>2025-04-23T09:35:29Z</time>
      </trkpt>
      <trkpt lat="43.64467" lon="1.37887">
        <ele>145</ele>
        <time>2025-04-23T09:35:30Z</time>
      </trkpt>
      <trkpt lat="43.64467" lon="1.37887">
        <ele>145</ele>
        <time>2025-04-23T09:35:31Z</time>
      </trkpt>
      <trkpt lat="43.64466" lon="1.37889">
        <ele>145</ele>
        <time>2025-04-23T09:35:32Z</time>
      </trkpt>
      <trkpt lat="43.64466" lon="1.37889">
        <ele>145</ele>
        <time>2025-04-23T09:35:33Z</time>
      </trkpt>
      <trkpt lat="43.64464" lon="1.37892">
        <ele>146</ele>
        <time>2025-04-23T09:35:34Z</time>
      </trkpt>
      <trkpt lat="43.64464" lon="1.37892">
        <ele>146</ele>
        <time>2025-04-23T09:35:35Z</time>
      </trkpt>
      <trkpt lat="43.64463" lon="1.37895">
        <ele>146</ele>
        <time>2025-04-23T09:35:36Z</time>
      </trkpt>
      <trkpt lat="43.64463" lon="1.37895">
        <ele>147</ele>
        <time>2025-04-23T09:35:37Z</time>
      </trkpt>
      <trkpt lat="43.64463" lon="1.37898">
        <ele>147</ele>
        <time>2025-04-23T09:35:38Z</time>
      </trkpt>
      <trkpt lat="43.64463" lon="1.37898">
        <ele>147</ele>
        <time>2025-04-23T09:35:39Z</time>
      </trkpt>
      <trkpt lat="43.64462" lon="1.37901">
        <ele>146</ele>
        <time>2025-04-23T09:35:40Z</time>
      </trkpt>
      <trkpt lat="43.64462" lon="1.37901">
        <ele>145</ele>
        <time>2025-04-23T09:35:41Z</time>
      </trkpt>
      <trkpt lat="43.64462" lon="1.37904">
        <ele>145</ele>
        <time>2025-04-23T09:35:42Z</time>
      </trkpt>
      <trkpt lat="43.64462" lon="1.37904">
        <ele>145</ele>
        <time>2025-04-23T09:35:43Z</time>
      </trkpt>
      <trkpt lat="43.64461" lon="1.37907">
        <ele>145</ele>
        <time>2025-04-23T09:35:44Z</time>
      </trkpt>
      <trkpt lat="43.64461" lon="1.37907">
        <ele>146</ele>
        <time>2025-04-23T09:35:45Z</time>
      </trkpt>
      <trkpt lat="43.6446" lon="1.3791">
        <ele>146</ele>
        <time>2025-04-23T09:35:46Z</time>
      </trkpt>
      <trkpt lat="43.6446" lon="1.3791">
        <ele>146</ele>
        <time>2025-04-23T09:35:47Z</time>
      </trkpt>
      <trkpt lat="43.6446" lon="1.37913">
        <ele>146</ele>
        <time>2025-04-23T09:35:48Z</time>
      </trkpt>
      <trkpt lat="43.6446" lon="1.37913">
        <ele>146</ele>
        <time>2025-04-23T09:35:49Z</time>
      </trkpt>
      <trkpt lat="43.6446" lon="1.37913">
        <ele>145</ele>
        <time>2025-04-23T09:35:50Z</time>
      </trkpt>
      <trkpt lat="43.6446" lon="1.37916">
        <ele>145</ele>
        <time>2025-04-23T09:35:51Z</time>
      </trkpt>
      <trkpt lat="43.6446" lon="1.37916">
        <ele>145</ele>
        <time>2025-04-23T09:35:52Z</time>
      </trkpt>
      <trkpt lat="43.64461" lon="1.37919">
        <ele>145</ele>
        <time>2025-04-23T09:35:53Z</time>
      </trkpt>
      <trkpt lat="43.64461" lon="1.37919">
        <ele>145</ele>
        <time>2025-04-23T09:35:54Z</time>
      </trkpt>
      <trkpt lat="43.64461" lon="1.37923">
        <ele>146</ele>
        <time>2025-04-23T09:35:55Z</time>
      </trkpt>
      <trkpt lat="43.64461" lon="1.37923">
        <ele>146</ele>
        <time>2025-04-23T09:35:56Z</time>
      </trkpt>
      <trkpt lat="43.64462" lon="1.37925">
        <ele>146</ele>
        <time>2025-04-23T09:35:57Z</time>
      </trkpt>
      <trkpt lat="43.64462" lon="1.37925">
        <ele>146</ele>
        <time>2025-04-23T09:35:58Z</time>
      </trkpt>
      <trkpt lat="43.64463" lon="1.37928">
        <ele>145</ele>
        <time>2025-04-23T09:35:59Z</time>
      </trkpt>
      <trkpt lat="43.64463" lon="1.37928">
        <ele>145</ele>
        <time>2025-04-23T09:36:00Z</time>
      </trkpt>
      <trkpt lat="43.64464" lon="1.37931">
        <ele>145</ele>
        <time>2025-04-23T09:36:01Z</time>
      </trkpt>
      <trkpt lat="43.64464" lon="1.37931">
        <ele>145</ele>
        <time>2025-04-23T09:36:02Z</time>
      </trkpt>
      <trkpt lat="43.64464" lon="1.37931">
        <ele>145</ele>
        <time>2025-04-23T09:36:03Z</time>
      </trkpt>
      <trkpt lat="43.64466" lon="1.37933">
        <ele>145</ele>
        <time>2025-04-23T09:36:04Z</time>
      </trkpt>
      <trkpt lat="43.64466" lon="1.37933">
        <ele>145</ele>
        <time>2025-04-23T09:36:05Z</time>
      </trkpt>
      <trkpt lat="43.64467" lon="1.37936">
        <ele>145</ele>
        <time>2025-04-23T09:36:06Z</time>
      </trkpt>
      <trkpt lat="43.64467" lon="1.37936">
        <ele>145</ele>
        <time>2025-04-23T09:36:07Z</time>
      </trkpt>
      <trkpt lat="43.64468" lon="1.37939">
        <ele>145</ele>
        <time>2025-04-23T09:36:08Z</time>
      </trkpt>
      <trkpt lat="43.64468" lon="1.37939">
        <ele>145</ele>
        <time>2025-04-23T09:36:09Z</time>
      </trkpt>
      <trkpt lat="43.6447" lon="1.37942">
        <ele>145</ele>
        <time>2025-04-23T09:36:10Z</time>
      </trkpt>
      <trkpt lat="43.6447" lon="1.37942">
        <ele>145</ele>
        <time>2025-04-23T09:36:11Z</time>
      </trkpt>
      <trkpt lat="43.6447" lon="1.37942">
        <ele>145</ele>
        <time>2025-04-23T09:36:12Z</time>
      </trkpt>
      <trkpt lat="43.6447" lon="1.37942">
        <ele>145</ele>
        <time>2025-04-23T09:36:13Z</time>
      </trkpt>
      <trkpt lat="43.64472" lon="1.37944">
        <ele>145</ele>
        <time>2025-04-23T09:36:14Z</time>
      </trkpt>
      <trkpt lat="43.64472" lon="1.37944">
        <ele>145</ele>
        <time>2025-04-23T09:36:15Z</time>
      </trkpt>
      <trkpt lat="43.64474" lon="1.37946">
        <ele>145</ele>
        <time>2025-04-23T09:36:16Z</time>
      </trkpt>
      <trkpt lat="43.64474" lon="1.37946">
        <ele>145</ele>
        <time>2025-04-23T09:36:17Z</time>
      </trkpt>
      <trkpt lat="43.64476" lon="1.37949">
        <ele>145</ele>
        <time>2025-04-23T09:36:18Z</time>
      </trkpt>
      <trkpt lat="43.64476" lon="1.37949">
        <ele>145</ele>
        <time>2025-04-23T09:36:19Z</time>
      </trkpt>
      <trkpt lat="43.64478" lon="1.3795">
        <ele>145</ele>
        <time>2025-04-23T09:36:20Z</time>
      </trkpt>
      <trkpt lat="43.64478" lon="1.3795">
        <ele>145</ele>
        <time>2025-04-23T09:36:21Z</time>
      </trkpt>
      <trkpt lat="43.64481" lon="1.3795">
        <ele>145</ele>
        <time>2025-04-23T09:36:22Z</time>
      </trkpt>
      <trkpt lat="43.64483" lon="1.3795">
        <ele>146</ele>
        <time>2025-04-23T09:36:23Z</time>
      </trkpt>
      <trkpt lat="43.64485" lon="1.37951">
        <ele>146</ele>
        <time>2025-04-23T09:36:24Z</time>
      </trkpt>
      <trkpt lat="43.64485" lon="1.37951">
        <ele>145</ele>
        <time>2025-04-23T09:36:25Z</time>
      </trkpt>
      <trkpt lat="43.64488" lon="1.37952">
        <ele>145</ele>
        <time>2025-04-23T09:36:26Z</time>
      </trkpt>
      <trkpt lat="43.64488" lon="1.37952">
        <ele>145</ele>
        <time>2025-04-23T09:36:27Z</time>
      </trkpt>
      <trkpt lat="43.64491" lon="1.37953">
        <ele>145</ele>
        <time>2025-04-23T09:36:28Z</time>
      </trkpt>
      <trkpt lat="43.64493" lon="1.37954">
        <ele>145</ele>
        <time>2025-04-23T09:36:29Z</time>
      </trkpt>
      <trkpt lat="43.64493" lon="1.37954">
        <ele>144</ele>
        <time>2025-04-23T09:36:30Z</time>
      </trkpt>
      <trkpt lat="43.64496" lon="1.37956">
        <ele>144</ele>
        <time>2025-04-23T09:36:31Z</time>
      </trkpt>
      <trkpt lat="43.64496" lon="1.37956">
        <ele>145</ele>
        <time>2025-04-23T09:36:32Z</time>
      </trkpt>
      <trkpt lat="43.64496" lon="1.37956">
        <ele>145</ele>
        <time>2025-04-23T09:36:33Z</time>
      </trkpt>
      <trkpt lat="43.64499" lon="1.37958">
        <ele>145</ele>
        <time>2025-04-23T09:36:34Z</time>
      </trkpt>
      <trkpt lat="43.64499" lon="1.37958">
        <ele>145</ele>
        <time>2025-04-23T09:36:35Z</time>
      </trkpt>
      <trkpt lat="43.645" lon="1.3796">
        <ele>145</ele>
        <time>2025-04-23T09:36:36Z</time>
      </trkpt>
      <trkpt lat="43.645" lon="1.3796">
        <ele>145</ele>
        <time>2025-04-23T09:36:37Z</time>
      </trkpt>
      <trkpt lat="43.645" lon="1.3796">
        <ele>145</ele>
        <time>2025-04-23T09:36:38Z</time>
      </trkpt>
      <trkpt lat="43.64503" lon="1.37962">
        <ele>145</ele>
        <time>2025-04-23T09:36:39Z</time>
      </trkpt>
      <trkpt lat="43.64503" lon="1.37962">
        <ele>145</ele>
        <time>2025-04-23T09:36:40Z</time>
      </trkpt>
      <trkpt lat="43.64504" lon="1.37963">
        <ele>145</ele>
        <time>2025-04-23T09:36:41Z</time>
      </trkpt>
      <trkpt lat="43.64504" lon="1.37963">
        <ele>145</ele>
        <time>2025-04-23T09:36:42Z</time>
      </trkpt>
      <trkpt lat="43.64506" lon="1.37965">
        <ele>145</ele>
        <time>2025-04-23T09:36:43Z</time>
      </trkpt>
      <trkpt lat="43.64506" lon="1.37965">
        <ele>145</ele>
        <time>2025-04-23T09:36:44Z</time>
      </trkpt>
      <trkpt lat="43.64509" lon="1.37967">
        <ele>145</ele>
        <time>2025-04-23T09:36:45Z</time>
      </trkpt>
      <trkpt lat="43.64509" lon="1.37967">
        <ele>145</ele>
        <time>2025-04-23T09:36:46Z</time>
      </trkpt>
      <trkpt lat="43.64511" lon="1.37968">
        <ele>144</ele>
        <time>2025-04-23T09:36:47Z</time>
      </trkpt>
      <trkpt lat="43.64511" lon="1.37968">
        <ele>144</ele>
        <time>2025-04-23T09:36:48Z</time>
      </trkpt>
      <trkpt lat="43.64513" lon="1.3797">
        <ele>144</ele>
        <time>2025-04-23T09:36:49Z</time>
      </trkpt>
      <trkpt lat="43.64513" lon="1.3797">
        <ele>144</ele>
        <time>2025-04-23T09:36:50Z</time>
      </trkpt>
      <trkpt lat="43.64515" lon="1.37971">
        <ele>144</ele>
        <time>2025-04-23T09:36:51Z</time>
      </trkpt>
      <trkpt lat="43.64515" lon="1.37971">
        <ele>144</ele>
        <time>2025-04-23T09:36:52Z</time>
      </trkpt>
      <trkpt lat="43.64517" lon="1.37973">
        <ele>144</ele>
        <time>2025-04-23T09:36:53Z</time>
      </trkpt>
      <trkpt lat="43.64517" lon="1.37973">
        <ele>144</ele>
        <time>2025-04-23T09:36:54Z</time>
      </trkpt>
      <trkpt lat="43.64519" lon="1.37975">
        <ele>144</ele>
        <time>2025-04-23T09:36:55Z</time>
      </trkpt>
      <trkpt lat="43.64519" lon="1.37975">
        <ele>144</ele>
        <time>2025-04-23T09:36:56Z</time>
      </trkpt>
      <trkpt lat="43.64521" lon="1.37977">
        <ele>145</ele>
        <time>2025-04-23T09:36:57Z</time>
      </trkpt>
      <trkpt lat="43.64521" lon="1.37977">
        <ele>145</ele>
        <time>2025-04-23T09:36:58Z</time>
      </trkpt>
      <trkpt lat="43.64523" lon="1.37978">
        <ele>145</ele>
        <time>2025-04-23T09:36:59Z</time>
      </trkpt>
    </trkseg>
  </trk>
</gpx>